Wetterdaten: Sonntag, 03.04.2022
Datum Zeit Temp. Aussen Temp. o. S. Temp +5cm Feuchte Auss Luftdruck Regen Sonnenschein Regendauer Solar Windben Empfang
03.04.2022 00:00 2,3 C 1,7 C -1,7 C 70 % 1021,9 hPa 0,0 l/m 0 min 0 min 0 W/m 16,1 km/h (3 Bft) 100,00 %
03.04.2022 00:02 2,3 C 1,7 C -1,7 C 70 % 1022,0 hPa 0,0 l/m 0 min 0 min 0 W/m 19,3 km/h (3 Bft) 100,00 %
03.04.2022 00:04 2,3 C 1,7 C -1,7 C 70 % 1022,0 hPa 0,0 l/m 0 min 0 min 0 W/m 12,9 km/h (3 Bft) 97,87 %
03.04.2022 00:08 2,3 C 1,7 C -1,7 C 70 % 1022,0 hPa 0,0 l/m 0 min 0 min 0 W/m 12,9 km/h (3 Bft) 98,95 %
03.04.2022 00:10 2,3 C 1,7 C -1,7 C 70 % 1022,1 hPa 0,0 l/m 0 min 0 min 0 W/m 9,7 km/h (2 Bft) 100,00 %
03.04.2022 00:12 2,3 C 1,7 C -1,7 C 71 % 1022,0 hPa 0,0 l/m 0 min 0 min 0 W/m 12,9 km/h (3 Bft) 100,00 %
03.04.2022 00:14 2,3 C 1,7 C -2,2 C 70 % 1022,0 hPa 0,0 l/m 0 min 0 min 0 W/m 6,4 km/h (2 Bft) 97,87 %
03.04.2022 00:16 2,2 C 1,1 C -2,2 C 71 % 1022,1 hPa 0,0 l/m 0 min 0 min 0 W/m 9,7 km/h (2 Bft) 97,87 %
03.04.2022 00:18 2,2 C 1,1 C -2,2 C 71 % 1022,1 hPa 0,0 l/m 0 min 0 min 0 W/m 12,9 km/h (3 Bft) 97,87 %
03.04.2022 00:20 2,2 C 1,1 C -2,2 C 71 % 1022,1 hPa 0,0 l/m 0 min 0 min 0 W/m 9,7 km/h (2 Bft) 100,00 %
03.04.2022 00:22 2,2 C 1,1 C -2,2 C 71 % 1022,1 hPa 0,0 l/m 0 min 0 min 0 W/m 9,7 km/h (2 Bft) 100,00 %
03.04.2022 00:24 2,2 C 1,1 C -2,2 C 71 % 1022,2 hPa 0,0 l/m 0 min 0 min 0 W/m 9,7 km/h (2 Bft) 100,00 %
03.04.2022 00:26 2,2 C 1,1 C -2,2 C 71 % 1022,1 hPa 0,0 l/m 0 min 0 min 0 W/m 6,4 km/h (2 Bft) 100,00 %
03.04.2022 00:28 2,2 C 1,1 C -2,2 C 71 % 1022,2 hPa 0,0 l/m 0 min 0 min 0 W/m 9,7 km/h (2 Bft) 100,00 %
03.04.2022 00:30 2,2 C 1,1 C -2,2 C 71 % 1022,2 hPa 0,0 l/m 0 min 0 min 0 W/m 6,4 km/h (2 Bft) 100,00 %
03.04.2022 00:32 2,2 C 1,1 C -2,2 C 71 % 1022,3 hPa 0,0 l/m 0 min 0 min 0 W/m 6,4 km/h (2 Bft) 100,00 %
03.04.2022 00:34 2,1 C 1,1 C -2,2 C 71 % 1022,2 hPa 0,0 l/m 0 min 0 min 0 W/m 12,9 km/h (3 Bft) 97,83 %
03.04.2022 00:36 2,1 C 1,1 C -2,2 C 72 % 1022,2 hPa 0,0 l/m 0 min 0 min 0 W/m 9,7 km/h (2 Bft) 100,00 %
03.04.2022 00:38 2,1 C 1,1 C -2,2 C 72 % 1022,3 hPa 0,0 l/m 0 min 0 min 0 W/m 9,7 km/h (2 Bft) 100,00 %
03.04.2022 00:40 2,1 C 1,7 C -2,2 C 72 % 1022,3 hPa 0,0 l/m 0 min 0 min 0 W/m 6,4 km/h (2 Bft) 97,87 %
03.04.2022 00:42 2,1 C 1,1 C -2,2 C 72 % 1022,3 hPa 0,0 l/m 0 min 0 min 0 W/m 3,2 km/h (1 Bft) 100,00 %
03.04.2022 00:44 2,1 C 1,1 C -2,2 C 72 % 1022,3 hPa 0,0 l/m 0 min 0 min 0 W/m 6,4 km/h (2 Bft) 100,00 %
03.04.2022 00:46 2,1 C 1,1 C -2,2 C 72 % 1022,3 hPa 0,0 l/m 0 min 0 min 0 W/m 12,9 km/h (3 Bft) 100,00 %
03.04.2022 00:48 2,1 C 1,1 C -2,2 C 72 % 1022,3 hPa 0,0 l/m 0 min 0 min 0 W/m 3,2 km/h (1 Bft) 95,74 %
03.04.2022 00:50 2,1 C 1,1 C -2,2 C 72 % 1022,3 hPa 0,0 l/m 0 min 0 min 0 W/m 9,7 km/h (2 Bft) 100,00 %
03.04.2022 00:52 2,1 C 1,1 C -2,2 C 72 % 1022,4 hPa 0,0 l/m 0 min 0 min 0 W/m 6,4 km/h (2 Bft) 100,00 %
03.04.2022 00:54 2,1 C 1,7 C -2,2 C 72 % 1022,4 hPa 0,0 l/m 0 min 0 min 0 W/m 6,4 km/h (2 Bft) 100,00 %
03.04.2022 00:56 2,1 C 1,7 C -2,2 C 71 % 1022,4 hPa 0,0 l/m 0 min 0 min 0 W/m 6,4 km/h (2 Bft) 95,65 %
03.04.2022 00:58 2,1 C 1,7 C -2,2 C 72 % 1022,4 hPa 0,0 l/m 0 min 0 min 0 W/m 9,7 km/h (2 Bft) 95,74 %
03.04.2022 01:00 2,1 C 1,7 C -2,2 C 71 % 1022,4 hPa 0,0 l/m 0 min 0 min 0 W/m 9,7 km/h (2 Bft) 100,00 %
03.04.2022 01:02 2,1 C 1,7 C -2,2 C 71 % 1022,5 hPa 0,0 l/m 0 min 0 min 0 W/m 12,9 km/h (3 Bft) 100,00 %
03.04.2022 01:04 2,1 C 1,7 C -2,2 C 72 % 1022,4 hPa 0,0 l/m 0 min 0 min 0 W/m 9,7 km/h (2 Bft) 97,87 %
03.04.2022 01:06 2,1 C 1,7 C -2,2 C 72 % 1022,5 hPa 0,0 l/m 0 min 0 min 0 W/m 9,7 km/h (2 Bft) 95,74 %
03.04.2022 01:08 2,1 C 1,7 C -2,2 C 72 % 1022,5 hPa 0,0 l/m 0 min 0 min 0 W/m 9,7 km/h (2 Bft) 95,65 %
03.04.2022 01:10 2,1 C 1,7 C -2,2 C 72 % 1022,5 hPa 0,0 l/m 0 min 0 min 0 W/m 9,7 km/h (2 Bft) 95,74 %
03.04.2022 01:12 2,1 C 1,7 C -1,7 C 72 % 1022,5 hPa 0,0 l/m 0 min 0 min 0 W/m 6,4 km/h (2 Bft) 95,74 %
03.04.2022 01:14 2,1 C 1,7 C -1,7 C 72 % 1022,4 hPa 0,0 l/m 0 min 0 min 0 W/m 6,4 km/h (2 Bft) 95,74 %
03.04.2022 01:16 2,1 C 1,7 C -2,2 C 72 % 1022,4 hPa 0,0 l/m 0 min 0 min 0 W/m 12,9 km/h (3 Bft) 95,74 %
03.04.2022 01:18 2,1 C 1,1 C -2,2 C 72 % 1022,5 hPa 0,0 l/m 0 min 0 min 0 W/m 12,9 km/h (3 Bft) 95,74 %
03.04.2022 01:20 2,1 C 1,1 C -2,2 C 72 % 1022,5 hPa 0,0 l/m 0 min 0 min 0 W/m 3,2 km/h (1 Bft) 95,65 %
03.04.2022 01:22 2,1 C 1,1 C -2,2 C 72 % 1022,5 hPa 0,0 l/m 0 min 0 min 0 W/m 3,2 km/h (1 Bft) 95,74 %
03.04.2022 01:24 2,1 C 1,1 C -2,2 C 72 % 1022,5 hPa 0,0 l/m 0 min 0 min 0 W/m 3,2 km/h (1 Bft) 95,74 %
03.04.2022 01:26 2,1 C 1,1 C -2,2 C 72 % 1022,5 hPa 0,0 l/m 0 min 0 min 0 W/m 6,4 km/h (2 Bft) 93,62 %
03.04.2022 01:28 2,1 C 1,1 C -2,2 C 72 % 1022,5 hPa 0,0 l/m 0 min 0 min 0 W/m 3,2 km/h (1 Bft) 95,74 %
03.04.2022 01:30 2,1 C 1,1 C -2,2 C 72 % 1022,5 hPa 0,0 l/m 0 min 0 min 0 W/m 3,2 km/h (1 Bft) 95,65 %
03.04.2022 01:32 2,1 C 1,1 C -2,2 C 73 % 1022,5 hPa 0,0 l/m 0 min 0 min 0 W/m 9,7 km/h (2 Bft) 97,87 %
03.04.2022 01:34 2,0 C 1,1 C -2,2 C 73 % 1022,5 hPa 0,0 l/m 0 min 0 min 0 W/m 6,4 km/h (2 Bft) 97,87 %
03.04.2022 01:36 2,0 C 1,1 C -2,2 C 73 % 1022,6 hPa 0,0 l/m 0 min 0 min 0 W/m 3,2 km/h (1 Bft) 97,87 %
03.04.2022 01:38 1,9 C 1,1 C -2,2 C 73 % 1022,6 hPa 0,0 l/m 0 min 0 min 0 W/m 3,2 km/h (1 Bft) 91,49 %
03.04.2022 01:40 1,9 C 1,1 C -2,2 C 74 % 1022,5 hPa 0,0 l/m 0 min 0 min 0 W/m 6,4 km/h (2 Bft) 97,87 %
03.04.2022 01:42 1,9 C 0,6 C -2,2 C 74 % 1022,6 hPa 0,0 l/m 0 min 0 min 0 W/m 3,2 km/h (1 Bft) 95,65 %
03.04.2022 01:44 1,9 C 0,6 C -2,2 C 74 % 1022,5 hPa 0,0 l/m 0 min 0 min 0 W/m 6,4 km/h (2 Bft) 100,00 %
03.04.2022 01:47 1,8 C 0,6 C -2,8 C 74 % 1022,5 hPa 0,0 l/m 0 min 0 min 0 W/m 6,4 km/h (2 Bft) 98,59 %
03.04.2022 01:48 1,8 C 0,6 C -2,8 C 74 % 1022,5 hPa 0,0 l/m 0 min 0 min 0 W/m 9,7 km/h (2 Bft) 100,00 %
03.04.2022 01:50 1,8 C 0,6 C -2,8 C 75 % 1022,6 hPa 0,0 l/m 0 min 0 min 0 W/m 9,7 km/h (2 Bft) 100,00 %
03.04.2022 01:52 1,7 C 0,6 C -2,8 C 75 % 1022,6 hPa 0,0 l/m 0 min 0 min 0 W/m 6,4 km/h (2 Bft) 100,00 %
03.04.2022 01:54 1,7 C 0,6 C -2,8 C 75 % 1022,6 hPa 0,0 l/m 0 min 0 min 0 W/m 6,4 km/h (2 Bft) 100,00 %
03.04.2022 01:56 1,7 C 0,6 C -2,8 C 75 % 1022,6 hPa 0,0 l/m 0 min 0 min 0 W/m 6,4 km/h (2 Bft) 100,00 %
03.04.2022 01:58 1,7 C 0,6 C -2,8 C 75 % 1022,6 hPa 0,0 l/m 0 min 0 min 0 W/m 6,4 km/h (2 Bft) 100,00 %
03.04.2022 02:00 1,6 C 0,6 C -2,8 C 75 % 1022,6 hPa 0,0 l/m 0 min 0 min 0 W/m 6,4 km/h (2 Bft) 100,00 %
03.04.2022 02:02 1,6 C 0,6 C -2,8 C 75 % 1022,6 hPa 0,0 l/m 0 min 0 min 0 W/m 3,2 km/h (1 Bft) 97,87 %
03.04.2022 02:04 1,6 C 0,6 C -2,8 C 75 % 1022,6 hPa 0,0 l/m 0 min 0 min 0 W/m 3,2 km/h (1 Bft) 95,74 %
03.04.2022 02:06 1,6 C 0,6 C -2,8 C 76 % 1022,6 hPa 0,0 l/m 0 min 0 min 0 W/m 6,4 km/h (2 Bft) 100,00 %
03.04.2022 02:08 1,5 C 0,6 C -2,8 C 76 % 1022,6 hPa 0,0 l/m 0 min 0 min 0 W/m 6,4 km/h (2 Bft) 97,87 %
03.04.2022 02:10 1,4 C 0,6 C -2,8 C 76 % 1022,6 hPa 0,0 l/m 0 min 0 min 0 W/m 6,4 km/h (2 Bft) 100,00 %
03.04.2022 02:12 1,4 C 0,6 C -2,8 C 76 % 1022,6 hPa 0,0 l/m 0 min 0 min 0 W/m 9,7 km/h (2 Bft) 100,00 %
03.04.2022 02:14 1,4 C 0,6 C -2,8 C 76 % 1022,6 hPa 0,0 l/m 0 min 0 min 0 W/m 6,4 km/h (2 Bft) 100,00 %
03.04.2022 02:16 1,3 C 0,6 C -2,8 C 76 % 1022,6 hPa 0,0 l/m 0 min 0 min 0 W/m 6,4 km/h (2 Bft) 100,00 %
03.04.2022 02:18 1,3 C 0,6 C -2,8 C 76 % 1022,6 hPa 0,0 l/m 0 min 0 min 0 W/m 9,7 km/h (2 Bft) 100,00 %
03.04.2022 02:20 1,3 C 0,6 C -2,8 C 76 % 1022,6 hPa 0,0 l/m 0 min 0 min 0 W/m 6,4 km/h (2 Bft) 100,00 %
03.04.2022 02:22 1,3 C 0,6 C -2,8 C 77 % 1022,6 hPa 0,0 l/m 0 min 0 min 0 W/m 6,4 km/h (2 Bft) 97,87 %
03.04.2022 02:24 1,3 C 0,6 C -2,8 C 77 % 1022,6 hPa 0,0 l/m 0 min 0 min 0 W/m 9,7 km/h (2 Bft) 97,87 %
03.04.2022 02:26 1,2 C 0,6 C -2,8 C 77 % 1022,6 hPa 0,0 l/m 0 min 0 min 0 W/m 9,7 km/h (2 Bft) 97,87 %
03.04.2022 02:28 1,2 C 0,0 C -2,8 C 77 % 1022,6 hPa 0,0 l/m 0 min 0 min 0 W/m 9,7 km/h (2 Bft) 97,87 %
03.04.2022 02:30 1,2 C 0,0 C -2,8 C 77 % 1022,6 hPa 0,0 l/m 0 min 0 min 0 W/m 6,4 km/h (2 Bft) 97,83 %
03.04.2022 02:32 1,2 C 0,0 C -2,8 C 77 % 1022,6 hPa 0,0 l/m 0 min 0 min 0 W/m 9,7 km/h (2 Bft) 97,87 %
03.04.2022 02:34 1,1 C 0,0 C -2,8 C 77 % 1022,7 hPa 0,0 l/m 0 min 0 min 0 W/m 9,7 km/h (2 Bft) 95,74 %
03.04.2022 02:36 1,1 C 0,0 C -2,8 C 77 % 1022,6 hPa 0,0 l/m 0 min 0 min 0 W/m 6,4 km/h (2 Bft) 97,87 %
03.04.2022 02:38 1,1 C 0,0 C -3,3 C 77 % 1022,6 hPa 0,0 l/m 0 min 0 min 0 W/m 9,7 km/h (2 Bft) 97,87 %
03.04.2022 02:40 1,1 C 0,0 C -2,8 C 77 % 1022,6 hPa 0,0 l/m 0 min 0 min 0 W/m 3,2 km/h (1 Bft) 95,65 %
03.04.2022 02:42 1,1 C 0,0 C -2,8 C 78 % 1022,6 hPa 0,0 l/m 0 min 0 min 0 W/m 3,2 km/h (1 Bft) 97,87 %
03.04.2022 02:44 1,0 C 0,0 C -2,8 C 78 % 1022,6 hPa 0,0 l/m 0 min 0 min 0 W/m 9,7 km/h (2 Bft) 97,87 %
03.04.2022 02:46 1,0 C 0,0 C -3,3 C 78 % 1022,6 hPa 0,0 l/m 0 min 0 min 0 W/m 6,4 km/h (2 Bft) 97,87 %
03.04.2022 02:48 0,9 C 0,0 C -3,3 C 78 % 1022,6 hPa 0,0 l/m 0 min 0 min 0 W/m 9,7 km/h (2 Bft) 97,87 %
03.04.2022 02:50 0,9 C 0,0 C -2,8 C 78 % 1022,6 hPa 0,0 l/m 0 min 0 min 0 W/m 6,4 km/h (2 Bft) 93,62 %
03.04.2022 02:52 0,9 C 0,6 C -2,8 C 78 % 1022,6 hPa 0,0 l/m 0 min 0 min 0 W/m 9,7 km/h (2 Bft) 93,48 %
03.04.2022 02:54 0,9 C 0,6 C -2,8 C 78 % 1022,6 hPa 0,0 l/m 0 min 0 min 0 W/m 6,4 km/h (2 Bft) 95,74 %
03.04.2022 02:56 0,9 C 0,6 C -2,8 C 78 % 1022,6 hPa 0,0 l/m 0 min 0 min 0 W/m 9,7 km/h (2 Bft) 95,74 %
03.04.2022 02:58 0,9 C 0,6 C -2,8 C 78 % 1022,6 hPa 0,0 l/m 0 min 0 min 0 W/m 6,4 km/h (2 Bft) 95,74 %
03.04.2022 03:00 0,9 C 0,6 C -2,8 C 78 % 1022,6 hPa 0,0 l/m 0 min 0 min 0 W/m 3,2 km/h (1 Bft) 93,62 %
03.04.2022 03:02 0,9 C 0,0 C -2,8 C 78 % 1022,6 hPa 0,0 l/m 0 min 0 min 0 W/m 6,4 km/h (2 Bft) 95,74 %
03.04.2022 03:04 0,9 C 0,0 C -2,8 C 78 % 1022,6 hPa 0,0 l/m 0 min 0 min 0 W/m 6,4 km/h (2 Bft) 95,65 %
03.04.2022 03:06 0,9 C 0,0 C -2,8 C 78 % 1022,7 hPa 0,0 l/m 0 min 0 min 0 W/m 6,4 km/h (2 Bft) 93,62 %
03.04.2022 03:08 0,9 C 0,0 C -3,3 C 78 % 1022,7 hPa 0,0 l/m 0 min 0 min 0 W/m 9,7 km/h (2 Bft) 93,88 %
03.04.2022 03:10 0,8 C 0,0 C -3,3 C 78 % 1022,7 hPa 0,0 l/m 0 min 0 min 0 W/m 6,4 km/h (2 Bft) 97,14 %
03.04.2022 03:12 0,8 C 0,0 C -3,3 C 78 % 1022,6 hPa 0,0 l/m 0 min 0 min 0 W/m 6,4 km/h (2 Bft) 93,62 %
03.04.2022 03:14 0,9 C 0,0 C -3,3 C 78 % 1022,7 hPa 0,0 l/m 0 min 0 min 0 W/m 3,2 km/h (1 Bft) 93,62 %
03.04.2022 03:16 0,8 C 0,0 C -3,3 C 78 % 1022,6 hPa 0,0 l/m 0 min 0 min 0 W/m 6,4 km/h (2 Bft) 95,74 %
03.04.2022 03:18 0,8 C 0,0 C -3,3 C 78 % 1022,6 hPa 0,0 l/m 0 min 0 min 0 W/m 9,7 km/h (2 Bft) 95,65 %
03.04.2022 03:20 0,8 C 0,0 C -3,3 C 78 % 1022,6 hPa 0,0 l/m 0 min 0 min 0 W/m 6,4 km/h (2 Bft) 97,87 %
03.04.2022 03:22 0,8 C 0,0 C -3,3 C 78 % 1022,7 hPa 0,0 l/m 0 min 0 min 0 W/m 3,2 km/h (1 Bft) 97,87 %
03.04.2022 03:24 0,8 C 0,0 C -3,3 C 78 % 1022,7 hPa 0,0 l/m 0 min 0 min 0 W/m 6,4 km/h (2 Bft) 97,87 %
03.04.2022 03:26 0,8 C 0,0 C -3,3 C 78 % 1022,7 hPa 0,0 l/m 0 min 0 min 0 W/m 3,2 km/h (1 Bft) 95,74 %
03.04.2022 03:28 0,8 C 0,0 C -3,3 C 78 % 1022,6 hPa 0,0 l/m 0 min 0 min 0 W/m 6,4 km/h (2 Bft) 97,87 %
03.04.2022 03:30 0,8 C 0,0 C -3,3 C 78 % 1022,6 hPa 0,0 l/m 0 min 0 min 0 W/m 3,2 km/h (1 Bft) 97,83 %
03.04.2022 03:32 0,8 C 0,0 C -3,3 C 78 % 1022,6 hPa 0,0 l/m 0 min 0 min 0 W/m 3,2 km/h (1 Bft) 95,74 %
03.04.2022 03:34 0,8 C 0,0 C -3,3 C 78 % 1022,6 hPa 0,0 l/m 0 min 0 min 0 W/m 3,2 km/h (1 Bft) 95,74 %
03.04.2022 03:36 0,8 C 0,0 C -3,3 C 78 % 1022,6 hPa 0,0 l/m 0 min 0 min 0 W/m 3,2 km/h (1 Bft) 68,09 %
03.04.2022 03:38 0,7 C 0,0 C -3,3 C 78 % 1022,5 hPa 0,0 l/m 0 min 0 min 0 W/m 6,4 km/h (2 Bft) 85,42 %
03.04.2022 03:40 0,7 C 0,0 C -3,3 C 78 % 1022,5 hPa 0,0 l/m 0 min 0 min 0 W/m 9,7 km/h (2 Bft) 95,92 %
03.04.2022 03:42 0,6 C 0,0 C -3,3 C 78 % 1022,6 hPa 0,0 l/m 0 min 0 min 0 W/m 9,7 km/h (2 Bft) 95,74 %
03.04.2022 03:44 0,6 C 0,0 C -3,3 C 78 % 1022,5 hPa 0,0 l/m 0 min 0 min 0 W/m 6,4 km/h (2 Bft) 95,74 %
03.04.2022 03:46 0,6 C 0,0 C -3,3 C 78 % 1022,5 hPa 0,0 l/m 0 min 0 min 0 W/m 3,2 km/h (1 Bft) 95,74 %
03.04.2022 03:48 0,6 C 0,0 C -3,3 C 78 % 1022,5 hPa 0,0 l/m 0 min 0 min 0 W/m 6,4 km/h (2 Bft) 97,87 %
03.04.2022 03:50 0,6 C 0,0 C -3,3 C 78 % 1022,5 hPa 0,0 l/m 0 min 0 min 0 W/m 3,2 km/h (1 Bft) 95,65 %
03.04.2022 03:52 0,6 C -0,6 C -3,3 C 78 % 1022,5 hPa 0,0 l/m 0 min 0 min 0 W/m 6,4 km/h (2 Bft) 95,74 %
03.04.2022 03:54 0,6 C -0,6 C -3,3 C 78 % 1022,5 hPa 0,0 l/m 0 min 0 min 0 W/m 6,4 km/h (2 Bft) 97,87 %
03.04.2022 03:56 0,6 C -0,6 C -3,3 C 78 % 1022,5 hPa 0,0 l/m 0 min 0 min 0 W/m 3,2 km/h (1 Bft) 95,74 %
03.04.2022 03:58 0,6 C -0,6 C -3,3 C 78 % 1022,5 hPa 0,0 l/m 0 min 0 min 0 W/m 0,0 km/h (0 Bft) 97,87 %
03.04.2022 04:00 0,6 C -0,6 C -3,3 C 78 % 1022,5 hPa 0,0 l/m 0 min 0 min 0 W/m 6,4 km/h (2 Bft) 100,00 %
03.04.2022 04:02 0,6 C -0,6 C -3,3 C 78 % 1022,5 hPa 0,0 l/m 0 min 0 min 0 W/m 6,4 km/h (2 Bft) 93,75 %
03.04.2022 04:04 0,6 C -0,6 C -3,3 C 78 % 1022,5 hPa 0,0 l/m 0 min 0 min 0 W/m 6,4 km/h (2 Bft) 100,00 %
03.04.2022 04:06 0,6 C -0,6 C -3,9 C 78 % 1022,5 hPa 0,0 l/m 0 min 0 min 0 W/m 6,4 km/h (2 Bft) 100,00 %
03.04.2022 04:08 0,5 C -0,6 C -3,9 C 78 % 1022,5 hPa 0,0 l/m 0 min 0 min 0 W/m 3,2 km/h (1 Bft) 100,00 %
03.04.2022 04:10 0,5 C -0,6 C -3,9 C 78 % 1022,5 hPa 0,0 l/m 0 min 0 min 0 W/m 6,4 km/h (2 Bft) 100,00 %
03.04.2022 04:12 0,4 C -0,6 C -3,9 C 78 % 1022,5 hPa 0,0 l/m 0 min 0 min 0 W/m 3,2 km/h (1 Bft) 100,00 %
03.04.2022 04:14 0,4 C -0,6 C -3,9 C 78 % 1022,5 hPa 0,0 l/m 0 min 0 min 0 W/m 3,2 km/h (1 Bft) 100,00 %
03.04.2022 04:16 0,4 C -0,6 C -3,9 C 78 % 1022,5 hPa 0,0 l/m 0 min 0 min 0 W/m 6,4 km/h (2 Bft) 100,00 %
03.04.2022 04:18 0,4 C -0,6 C -3,9 C 78 % 1022,5 hPa 0,0 l/m 0 min 0 min 0 W/m 0,0 km/h (0 Bft) 95,74 %
03.04.2022 04:20 0,4 C -0,6 C -3,9 C 78 % 1022,5 hPa 0,0 l/m 0 min 0 min 0 W/m 0,0 km/h (0 Bft) 53,85 %
03.04.2022 04:22 0,3 C -0,6 C -3,9 C 79 % 1022,5 hPa 0,0 l/m 0 min 0 min 0 W/m 0,0 km/h (0 Bft) 97,87 %
03.04.2022 04:24 0,3 C -0,6 C -3,9 C 79 % 1022,5 hPa 0,0 l/m 0 min 0 min 0 W/m 0,0 km/h (0 Bft) 100,00 %
03.04.2022 04:26 0,3 C -0,6 C -3,9 C 79 % 1022,5 hPa 0,0 l/m 0 min 0 min 0 W/m 0,0 km/h (0 Bft) 100,00 %
03.04.2022 04:28 0,3 C -0,6 C -3,9 C 79 % 1022,5 hPa 0,0 l/m 0 min 0 min 0 W/m 0,0 km/h (0 Bft) 97,87 %
03.04.2022 04:30 0,2 C -0,6 C -3,9 C 79 % 1022,5 hPa 0,0 l/m 0 min 0 min 0 W/m 0,0 km/h (0 Bft) 97,87 %
03.04.2022 04:32 0,2 C -0,6 C -3,9 C 79 % 1022,5 hPa 0,0 l/m 0 min 0 min 0 W/m 0,0 km/h (0 Bft) 97,87 %
03.04.2022 04:34 0,2 C -1,1 C -3,9 C 79 % 1022,5 hPa 0,0 l/m 0 min 0 min 0 W/m 0,0 km/h (0 Bft) 97,87 %
03.04.2022 04:36 0,2 C -1,1 C -3,9 C 79 % 1022,5 hPa 0,0 l/m 0 min 0 min 0 W/m 0,0 km/h (0 Bft) 97,83 %
03.04.2022 04:38 0,1 C -1,1 C -4,4 C 79 % 1022,6 hPa 0,0 l/m 0 min 0 min 0 W/m 0,0 km/h (0 Bft) 97,87 %
03.04.2022 04:40 0,1 C -1,1 C -4,4 C 79 % 1022,6 hPa 0,0 l/m 0 min 0 min 0 W/m 0,0 km/h (0 Bft) 97,87 %
03.04.2022 04:42 0,1 C -1,1 C -4,4 C 79 % 1022,6 hPa 0,0 l/m 0 min 0 min 0 W/m 0,0 km/h (0 Bft) 95,74 %
03.04.2022 04:44 0,0 C -1,1 C -4,4 C 79 % 1022,5 hPa 0,0 l/m 0 min 0 min 0 W/m 0,0 km/h (0 Bft) 97,87 %
03.04.2022 04:46 0,0 C -1,1 C -4,4 C 79 % 1022,5 hPa 0,0 l/m 0 min 0 min 0 W/m 0,0 km/h (0 Bft) 97,87 %
03.04.2022 04:48 -0,1 C -1,1 C -4,4 C 79 % 1022,5 hPa 0,0 l/m 0 min 0 min 0 W/m 0,0 km/h (0 Bft) 95,65 %
03.04.2022 04:50 -0,1 C -1,1 C -4,4 C 80 % 1022,5 hPa 0,0 l/m 0 min 0 min 0 W/m 0,0 km/h (0 Bft) 97,87 %
03.04.2022 04:52 -0,2 C -1,1 C -4,4 C 80 % 1022,5 hPa 0,0 l/m 0 min 0 min 0 W/m 0,0 km/h (0 Bft) 97,87 %
03.04.2022 04:54 -0,2 C -1,1 C -4,4 C 80 % 1022,5 hPa 0,0 l/m 0 min 0 min 0 W/m 0,0 km/h (0 Bft) 97,87 %
03.04.2022 04:56 -0,2 C -1,1 C -4,4 C 80 % 1022,5 hPa 0,0 l/m 0 min 0 min 0 W/m 0,0 km/h (0 Bft) 97,87 %
03.04.2022 04:58 -0,3 C -1,1 C -4,4 C 80 % 1022,5 hPa 0,0 l/m 0 min 0 min 0 W/m 0,0 km/h (0 Bft) 100,00 %
03.04.2022 05:00 -0,3 C -1,1 C -4,4 C 80 % 1022,5 hPa 0,0 l/m 0 min 0 min 0 W/m 0,0 km/h (0 Bft) 100,00 %
03.04.2022 05:02 -0,3 C -1,7 C -4,4 C 80 % 1022,5 hPa 0,0 l/m 0 min 0 min 0 W/m 0,0 km/h (0 Bft) 100,00 %
03.04.2022 05:04 -0,3 C -1,7 C -4,4 C 80 % 1022,5 hPa 0,0 l/m 0 min 0 min 0 W/m 0,0 km/h (0 Bft) 97,87 %
03.04.2022 05:06 -0,4 C -1,7 C -4,4 C 80 % 1022,5 hPa 0,0 l/m 0 min 0 min 0 W/m 0,0 km/h (0 Bft) 97,87 %
03.04.2022 05:08 -0,4 C -1,7 C -4,4 C 80 % 1022,5 hPa 0,0 l/m 0 min 0 min 0 W/m 6,4 km/h (2 Bft) 100,00 %
03.04.2022 05:10 -0,4 C -1,7 C -4,4 C 80 % 1022,5 hPa 0,0 l/m 0 min 0 min 0 W/m 3,2 km/h (1 Bft) 100,00 %
03.04.2022 05:12 -0,4 C -1,7 C -4,4 C 80 % 1022,6 hPa 0,0 l/m 0 min 0 min 0 W/m 0,0 km/h (0 Bft) 100,00 %
03.04.2022 05:14 -0,4 C -1,7 C -4,4 C 80 % 1022,6 hPa 0,0 l/m 0 min 0 min 0 W/m 6,4 km/h (2 Bft) 100,00 %
03.04.2022 05:16 -0,5 C -1,7 C -4,4 C 80 % 1022,6 hPa 0,0 l/m 0 min 0 min 0 W/m 6,4 km/h (2 Bft) 100,00 %
03.04.2022 05:18 -0,6 C -1,7 C -5,0 C 80 % 1022,6 hPa 0,0 l/m 0 min 0 min 0 W/m 6,4 km/h (2 Bft) 97,87 %
03.04.2022 05:20 -0,6 C -1,7 C -4,4 C 80 % 1022,6 hPa 0,0 l/m 0 min 0 min 0 W/m 3,2 km/h (1 Bft) 100,00 %
03.04.2022 05:22 -0,6 C -1,7 C -5,0 C 81 % 1022,6 hPa 0,0 l/m 0 min 0 min 0 W/m 3,2 km/h (1 Bft) 97,83 %
03.04.2022 05:24 -0,6 C -1,7 C -5,0 C 81 % 1022,6 hPa 0,0 l/m 0 min 0 min 0 W/m 3,2 km/h (1 Bft) 97,87 %
03.04.2022 05:26 -0,7 C -1,7 C -5,0 C 81 % 1022,6 hPa 0,0 l/m 0 min 0 min 0 W/m 6,4 km/h (2 Bft) 100,00 %
03.04.2022 05:28 -0,7 C -1,7 C -5,0 C 81 % 1022,6 hPa 0,0 l/m 0 min 0 min 0 W/m 3,2 km/h (1 Bft) 100,00 %
03.04.2022 05:30 -0,7 C -1,7 C -5,0 C 81 % 1022,6 hPa 0,0 l/m 0 min 0 min 0 W/m 3,2 km/h (1 Bft) 97,87 %
03.04.2022 05:32 -0,7 C -1,7 C -5,0 C 81 % 1022,6 hPa 0,0 l/m 0 min 0 min 0 W/m 3,2 km/h (1 Bft) 95,74 %
03.04.2022 05:34 -0,7 C -1,7 C -5,0 C 81 % 1022,6 hPa 0,0 l/m 0 min 0 min 0 W/m 0,0 km/h (0 Bft) 97,83 %
03.04.2022 05:36 -0,7 C -1,7 C -5,0 C 81 % 1022,6 hPa 0,0 l/m 0 min 0 min 0 W/m 3,2 km/h (1 Bft) 97,87 %
03.04.2022 05:38 -0,8 C -1,7 C -5,0 C 81 % 1022,7 hPa 0,0 l/m 0 min 0 min 0 W/m 6,4 km/h (2 Bft) 97,87 %
03.04.2022 05:40 -0,8 C -1,7 C -5,0 C 81 % 1022,7 hPa 0,0 l/m 0 min 0 min 0 W/m 3,2 km/h (1 Bft) 97,87 %
03.04.2022 05:42 -0,8 C -1,7 C -5,0 C 81 % 1022,7 hPa 0,0 l/m 0 min 0 min 0 W/m 3,2 km/h (1 Bft) 95,74 %
03.04.2022 05:44 -0,8 C -1,7 C -5,0 C 81 % 1022,7 hPa 0,0 l/m 0 min 0 min 0 W/m 6,4 km/h (2 Bft) 97,87 %
03.04.2022 05:46 -0,8 C -1,7 C -5,0 C 81 % 1022,7 hPa 0,0 l/m 0 min 0 min 0 W/m 3,2 km/h (1 Bft) 97,83 %
03.04.2022 05:48 -0,8 C -1,7 C -5,0 C 81 % 1022,8 hPa 0,0 l/m 0 min 0 min 0 W/m 3,2 km/h (1 Bft) 97,87 %
03.04.2022 05:50 -0,8 C -1,7 C -5,0 C 81 % 1022,8 hPa 0,0 l/m 0 min 0 min 0 W/m 3,2 km/h (1 Bft) 97,87 %
03.04.2022 05:52 -0,8 C -1,7 C -5,0 C 81 % 1022,8 hPa 0,0 l/m 0 min 0 min 0 W/m 3,2 km/h (1 Bft) 95,74 %
03.04.2022 05:54 -0,9 C -1,7 C -5,0 C 81 % 1022,7 hPa 0,0 l/m 0 min 0 min 0 W/m 3,2 km/h (1 Bft) 97,87 %
03.04.2022 05:56 -0,9 C -1,7 C -5,0 C 81 % 1022,8 hPa 0,0 l/m 0 min 0 min 0 W/m 6,4 km/h (2 Bft) 95,74 %
03.04.2022 05:58 -0,9 C -2,2 C -5,0 C 81 % 1022,8 hPa 0,0 l/m 0 min 0 min 0 W/m 3,2 km/h (1 Bft) 95,65 %
03.04.2022 06:00 -0,9 C -2,2 C -5,0 C 81 % 1022,8 hPa 0,0 l/m 0 min 0 min 0 W/m 3,2 km/h (1 Bft) 97,87 %
03.04.2022 06:02 -1,0 C -2,2 C -5,0 C 81 % 1022,8 hPa 0,0 l/m 0 min 0 min 0 W/m 3,2 km/h (1 Bft) 97,87 %
03.04.2022 06:04 -1,0 C -2,2 C -5,0 C 81 % 1022,8 hPa 0,0 l/m 0 min 0 min 0 W/m 3,2 km/h (1 Bft) 97,87 %
03.04.2022 06:08 -1,1 C -2,2 C -5,6 C 81 % 1022,8 hPa 0,0 l/m 0 min 0 min 0 W/m 3,2 km/h (1 Bft) 97,85 %
03.04.2022 06:10 -1,1 C -2,2 C -5,6 C 81 % 1022,8 hPa 0,0 l/m 0 min 0 min 0 W/m 3,2 km/h (1 Bft) 97,87 %
03.04.2022 06:12 -1,1 C -2,2 C -5,6 C 81 % 1022,8 hPa 0,0 l/m 0 min 0 min 0 W/m 3,2 km/h (1 Bft) 97,87 %
03.04.2022 06:14 -1,2 C -2,2 C -5,6 C 81 % 1022,8 hPa 0,0 l/m 0 min 0 min 0 W/m 3,2 km/h (1 Bft) 95,74 %
03.04.2022 06:16 -1,2 C -2,8 C -5,6 C 81 % 1022,9 hPa 0,0 l/m 0 min 0 min 0 W/m 3,2 km/h (1 Bft) 95,74 %
03.04.2022 06:18 -1,2 C -2,2 C -5,6 C 81 % 1022,9 hPa 0,0 l/m 0 min 0 min 0 W/m 0,0 km/h (0 Bft) 93,62 %
03.04.2022 06:20 -1,3 C -2,8 C -5,6 C 81 % 1022,9 hPa 0,0 l/m 0 min 0 min 0 W/m 0,0 km/h (0 Bft) 95,65 %
03.04.2022 06:22 -1,3 C -2,8 C -5,6 C 81 % 1022,9 hPa 0,0 l/m 0 min 0 min 0 W/m 0,0 km/h (0 Bft) 93,62 %
03.04.2022 06:24 -1,3 C -2,2 C -5,6 C 81 % 1022,9 hPa 0,0 l/m 0 min 0 min 0 W/m 0,0 km/h (0 Bft) 95,74 %
03.04.2022 06:26 -1,3 C -2,2 C -5,6 C 81 % 1022,9 hPa 0,0 l/m 0 min 0 min 0 W/m 0,0 km/h (0 Bft) 97,87 %
03.04.2022 06:28 -1,4 C -2,8 C -5,6 C 82 % 1022,9 hPa 0,0 l/m 0 min 0 min 0 W/m 0,0 km/h (0 Bft) 95,74 %
03.04.2022 06:30 -1,4 C -2,2 C -5,6 C 82 % 1022,9 hPa 0,0 l/m 0 min 0 min 0 W/m 0,0 km/h (0 Bft) 95,74 %
03.04.2022 06:32 -1,4 C -2,2 C -5,6 C 82 % 1023,0 hPa 0,0 l/m 0 min 0 min 0 W/m 0,0 km/h (0 Bft) 95,65 %
03.04.2022 06:34 -1,4 C -2,8 C -5,6 C 82 % 1023,0 hPa 0,0 l/m 0 min 0 min 0 W/m 0,0 km/h (0 Bft) 97,87 %
03.04.2022 06:36 -1,4 C -2,8 C -5,6 C 82 % 1023,0 hPa 0,0 l/m 0 min 0 min 0 W/m 0,0 km/h (0 Bft) 93,62 %
03.04.2022 06:38 -1,4 C -2,8 C -5,6 C 82 % 1023,0 hPa 0,0 l/m 0 min 0 min 0 W/m 0,0 km/h (0 Bft) 97,87 %
03.04.2022 06:40 -1,5 C -2,2 C -5,6 C 82 % 1023,0 hPa 0,0 l/m 0 min 0 min 0 W/m 0,0 km/h (0 Bft) 97,87 %
03.04.2022 06:42 -1,5 C -2,2 C -5,6 C 83 % 1023,0 hPa 0,0 l/m 0 min 0 min 0 W/m 0,0 km/h (0 Bft) 97,87 %
03.04.2022 06:44 -1,5 C -2,8 C -5,6 C 83 % 1023,0 hPa 0,0 l/m 0 min 0 min 0 W/m 0,0 km/h (0 Bft) 97,83 %
03.04.2022 06:46 -1,6 C -2,8 C -5,6 C 83 % 1023,0 hPa 0,0 l/m 0 min 0 min 0 W/m 0,0 km/h (0 Bft) 97,87 %
03.04.2022 06:48 -1,6 C -2,8 C -5,6 C 83 % 1023,0 hPa 0,0 l/m 0 min 0 min 0 W/m 0,0 km/h (0 Bft) 95,74 %
03.04.2022 06:50 -1,6 C -2,8 C -5,6 C 83 % 1023,1 hPa 0,0 l/m 0 min 0 min 0 W/m 0,0 km/h (0 Bft) 97,87 %
03.04.2022 06:52 -1,6 C -2,8 C -5,6 C 83 % 1023,1 hPa 0,0 l/m 0 min 0 min 0 W/m 0,0 km/h (0 Bft) 95,74 %
03.04.2022 06:54 -1,6 C -2,8 C -5,6 C 83 % 1023,0 hPa 0,0 l/m 0 min 0 min 0 W/m 0,0 km/h (0 Bft) 97,87 %
03.04.2022 06:56 -1,7 C -2,8 C -5,6 C 83 % 1023,1 hPa 0,0 l/m 0 min 0 min 0 W/m 0,0 km/h (0 Bft) 97,83 %
03.04.2022 06:58 -1,7 C -2,8 C -5,6 C 83 % 1023,1 hPa 0,0 l/m 0 min 0 min 0 W/m 0,0 km/h (0 Bft) 97,87 %
03.04.2022 07:00 -1,7 C -2,8 C -5,6 C 83 % 1023,2 hPa 0,0 l/m 0 min 0 min 0 W/m 0,0 km/h (0 Bft) 97,87 %
03.04.2022 07:02 -1,7 C -2,8 C -5,6 C 83 % 1023,2 hPa 0,0 l/m 0 min 0 min 0 W/m 0,0 km/h (0 Bft) 97,87 %
03.04.2022 07:04 -1,7 C -2,8 C -5,6 C 83 % 1023,2 hPa 0,0 l/m 0 min 0 min 0 W/m 3,2 km/h (1 Bft) 95,74 %
03.04.2022 07:06 -1,7 C -2,8 C -5,6 C 83 % 1023,2 hPa 0,0 l/m 0 min 0 min 0 W/m 3,2 km/h (1 Bft) 93,48 %
03.04.2022 07:08 -1,8 C -2,8 C -5,6 C 83 % 1023,3 hPa 0,0 l/m 0 min 0 min 3 W/m 3,2 km/h (1 Bft) 95,74 %
03.04.2022 07:10 -1,7 C -2,8 C -5,6 C 83 % 1023,3 hPa 0,0 l/m 0 min 0 min 5 W/m 3,2 km/h (1 Bft) 95,74 %
03.04.2022 07:12 -1,7 C -2,2 C -5,6 C 83 % 1023,3 hPa 0,0 l/m 0 min 0 min 5 W/m 3,2 km/h (1 Bft) 95,74 %
03.04.2022 07:14 -1,7 C -2,2 C -5,6 C 84 % 1023,3 hPa 0,0 l/m 0 min 0 min 7 W/m 0,0 km/h (0 Bft) 97,87 %
03.04.2022 07:16 -1,7 C -2,2 C -5,6 C 84 % 1023,3 hPa 0,0 l/m 0 min 0 min 7 W/m 3,2 km/h (1 Bft) 97,87 %
03.04.2022 07:18 -1,8 C -2,8 C -5,6 C 84 % 1023,4 hPa 0,0 l/m 0 min 0 min 9 W/m 3,2 km/h (1 Bft) 97,83 %
03.04.2022 07:20 -1,8 C -2,8 C -5,6 C 84 % 1023,4 hPa 0,0 l/m 0 min 0 min 9 W/m 3,2 km/h (1 Bft) 95,74 %
03.04.2022 07:22 -1,8 C -2,8 C -5,6 C 84 % 1023,4 hPa 0,0 l/m 0 min 0 min 11 W/m 3,2 km/h (1 Bft) 97,87 %
03.04.2022 07:24 -1,8 C -2,8 C -5,6 C 84 % 1023,5 hPa 0,0 l/m 0 min 0 min 12 W/m 6,4 km/h (2 Bft) 95,74 %
03.04.2022 07:26 -1,8 C -2,8 C -5,6 C 84 % 1023,4 hPa 0,0 l/m 0 min 0 min 12 W/m 3,2 km/h (1 Bft) 95,74 %
03.04.2022 07:28 -1,8 C -2,8 C -5,6 C 84 % 1023,5 hPa 0,0 l/m 0 min 0 min 13 W/m 9,7 km/h (2 Bft) 95,74 %
03.04.2022 07:30 -1,8 C -2,8 C -5,6 C 84 % 1023,4 hPa 0,0 l/m 0 min 0 min 14 W/m 3,2 km/h (1 Bft) 95,65 %
03.04.2022 07:32 -1,8 C -2,2 C -5,6 C 84 % 1023,4 hPa 0,0 l/m 0 min 0 min 14 W/m 3,2 km/h (1 Bft) 97,87 %
03.04.2022 07:34 -1,8 C -2,2 C -5,6 C 84 % 1023,4 hPa 0,0 l/m 0 min 0 min 16 W/m 3,2 km/h (1 Bft) 95,74 %
03.04.2022 07:36 -1,8 C -2,2 C -5,6 C 84 % 1023,5 hPa 0,0 l/m 0 min 0 min 16 W/m 3,2 km/h (1 Bft) 93,62 %
03.04.2022 07:38 -1,8 C -2,8 C -5,6 C 84 % 1023,5 hPa 0,0 l/m 0 min 0 min 17 W/m 6,4 km/h (2 Bft) 95,74 %
03.04.2022 07:40 -1,8 C -2,8 C -5,6 C 84 % 1023,5 hPa 0,0 l/m 0 min 0 min 18 W/m 6,4 km/h (2 Bft) 95,74 %
03.04.2022 07:42 -1,8 C -2,8 C -5,6 C 84 % 1023,5 hPa 0,0 l/m 0 min 0 min 19 W/m 0,0 km/h (0 Bft) 93,48 %
03.04.2022 07:44 -1,8 C -2,8 C -5,6 C 84 % 1023,6 hPa 0,0 l/m 0 min 0 min 19 W/m 3,2 km/h (1 Bft) 95,74 %
03.04.2022 07:46 -1,8 C -2,8 C -5,6 C 84 % 1023,5 hPa 0,0 l/m 0 min 0 min 19 W/m 3,2 km/h (1 Bft) 91,49 %
03.04.2022 07:48 -1,9 C -2,8 C -5,6 C 84 % 1023,5 hPa 0,0 l/m 0 min 0 min 21 W/m 6,4 km/h (2 Bft) 95,74 %
03.04.2022 07:50 -1,9 C -2,8 C -5,6 C 84 % 1023,5 hPa 0,0 l/m 0 min 0 min 21 W/m 0,0 km/h (0 Bft) 95,74 %
03.04.2022 07:52 -1,9 C -2,8 C -5,6 C 84 % 1023,5 hPa 0,0 l/m 0 min 0 min 22 W/m 3,2 km/h (1 Bft) 95,65 %
03.04.2022 07:54 -1,9 C -2,2 C -5,6 C 84 % 1023,6 hPa 0,0 l/m 0 min 0 min 23 W/m 0,0 km/h (0 Bft) 93,62 %
03.04.2022 07:56 -1,9 C -2,2 C -5,6 C 84 % 1023,6 hPa 0,0 l/m 0 min 0 min 23 W/m 0,0 km/h (0 Bft) 95,74 %
03.04.2022 07:58 -1,9 C -2,2 C -5,6 C 84 % 1023,6 hPa 0,0 l/m 0 min 0 min 25 W/m 0,0 km/h (0 Bft) 95,74 %
03.04.2022 08:00 -1,9 C -2,2 C -5,6 C 84 % 1023,7 hPa 0,0 l/m 0 min 0 min 25 W/m 0,0 km/h (0 Bft) 97,87 %
03.04.2022 08:02 -1,9 C -2,2 C -5,6 C 84 % 1023,7 hPa 0,0 l/m 0 min 0 min 25 W/m 3,2 km/h (1 Bft) 100,00 %
03.04.2022 08:04 -1,8 C -2,2 C -5,6 C 84 % 1023,6 hPa 0,0 l/m 0 min 0 min 26 W/m 3,2 km/h (1 Bft) 100,00 %
03.04.2022 08:06 -1,8 C -2,2 C -5,6 C 84 % 1023,7 hPa 0,0 l/m 0 min 0 min 26 W/m 3,2 km/h (1 Bft) 100,00 %
03.04.2022 08:08 -1,8 C -2,2 C -5,0 C 84 % 1023,7 hPa 0,0 l/m 0 min 0 min 27 W/m 3,2 km/h (1 Bft) 97,87 %
03.04.2022 08:10 -1,8 C -2,2 C -5,0 C 84 % 1023,7 hPa 0,0 l/m 0 min 0 min 28 W/m 3,2 km/h (1 Bft) 100,00 %
03.04.2022 08:12 -1,8 C -2,2 C -5,0 C 85 % 1023,7 hPa 0,0 l/m 0 min 0 min 28 W/m 0,0 km/h (0 Bft) 97,87 %
03.04.2022 08:14 -1,7 C -2,2 C -5,0 C 85 % 1023,7 hPa 0,0 l/m 0 min 0 min 29 W/m 0,0 km/h (0 Bft) 100,00 %
03.04.2022 08:16 -1,7 C -2,2 C -5,0 C 85 % 1023,7 hPa 0,0 l/m 0 min 0 min 30 W/m 0,0 km/h (0 Bft) 100,00 %
03.04.2022 08:18 -1,7 C -1,7 C -5,0 C 85 % 1023,7 hPa 0,0 l/m 0 min 0 min 30 W/m 0,0 km/h (0 Bft) 100,00 %
03.04.2022 08:20 -1,7 C -1,7 C -5,0 C 85 % 1023,8 hPa 0,0 l/m 0 min 0 min 30 W/m 0,0 km/h (0 Bft) 100,00 %
03.04.2022 08:22 -1,7 C -1,7 C -5,0 C 85 % 1023,7 hPa 0,0 l/m 0 min 0 min 31 W/m 0,0 km/h (0 Bft) 100,00 %
03.04.2022 08:24 -1,7 C -1,7 C -5,0 C 85 % 1023,7 hPa 0,0 l/m 0 min 0 min 32 W/m 0,0 km/h (0 Bft) 100,00 %
03.04.2022 08:26 -1,6 C -1,7 C -5,0 C 85 % 1023,7 hPa 0,0 l/m 0 min 0 min 32 W/m 0,0 km/h (0 Bft) 100,00 %
03.04.2022 08:28 -1,6 C -1,7 C -5,0 C 85 % 1023,7 hPa 0,0 l/m 0 min 0 min 32 W/m 0,0 km/h (0 Bft) 97,87 %
03.04.2022 08:30 -1,6 C -1,7 C -4,4 C 85 % 1023,7 hPa 0,0 l/m 0 min 0 min 33 W/m 0,0 km/h (0 Bft) 100,00 %
03.04.2022 08:32 -1,6 C -1,7 C -4,4 C 85 % 1023,7 hPa 0,0 l/m 0 min 0 min 33 W/m 3,2 km/h (1 Bft) 100,00 %
03.04.2022 08:34 -1,4 C -1,7 C -4,4 C 85 % 1023,7 hPa 0,0 l/m 0 min 0 min 33 W/m 3,2 km/h (1 Bft) 100,00 %
03.04.2022 08:36 -1,4 C -1,1 C -4,4 C 85 % 1023,8 hPa 0,0 l/m 0 min 0 min 35 W/m 3,2 km/h (1 Bft) 100,00 %
03.04.2022 08:38 -1,3 C -1,1 C -4,4 C 85 % 1023,7 hPa 0,0 l/m 0 min 0 min 35 W/m 3,2 km/h (1 Bft) 100,00 %
03.04.2022 08:40 -1,3 C -1,1 C -4,4 C 85 % 1023,8 hPa 0,0 l/m 0 min 0 min 35 W/m 0,0 km/h (0 Bft) 100,00 %
03.04.2022 08:42 -1,2 C -1,1 C -4,4 C 85 % 1023,8 hPa 0,0 l/m 0 min 0 min 35 W/m 3,2 km/h (1 Bft) 100,00 %
03.04.2022 08:44 -1,2 C -1,1 C -4,4 C 85 % 1023,8 hPa 0,0 l/m 0 min 0 min 37 W/m 3,2 km/h (1 Bft) 97,87 %
03.04.2022 08:46 -1,1 C -1,1 C -4,4 C 85 % 1023,8 hPa 0,0 l/m 0 min 0 min 37 W/m 3,2 km/h (1 Bft) 100,00 %
03.04.2022 08:48 -1,1 C -1,1 C -4,4 C 85 % 1023,8 hPa 0,0 l/m 0 min 0 min 38 W/m 3,2 km/h (1 Bft) 100,00 %
03.04.2022 08:50 -1,0 C -0,6 C -3,9 C 85 % 1023,8 hPa 0,0 l/m 0 min 0 min 39 W/m 6,4 km/h (2 Bft) 100,00 %
03.04.2022 08:52 -0,9 C -0,6 C -3,9 C 85 % 1023,8 hPa 0,0 l/m 0 min 0 min 39 W/m 6,4 km/h (2 Bft) 100,00 %
03.04.2022 08:54 -0,9 C -0,6 C -3,9 C 85 % 1023,8 hPa 0,0 l/m 0 min 0 min 39 W/m 6,4 km/h (2 Bft) 100,00 %
03.04.2022 08:56 -0,9 C -0,6 C -3,9 C 85 % 1023,8 hPa 0,0 l/m 0 min 0 min 40 W/m 6,4 km/h (2 Bft) 100,00 %
03.04.2022 08:58 -0,8 C -0,6 C -3,9 C 85 % 1023,8 hPa 0,0 l/m 0 min 0 min 40 W/m 3,2 km/h (1 Bft) 100,00 %
03.04.2022 09:00 -0,8 C -0,6 C -3,9 C 85 % 1023,8 hPa 0,0 l/m 0 min 0 min 41 W/m 3,2 km/h (1 Bft) 100,00 %
03.04.2022 09:02 -0,7 C 0,0 C -3,9 C 85 % 1023,8 hPa 0,0 l/m 0 min 0 min 42 W/m 3,2 km/h (1 Bft) 100,00 %
03.04.2022 09:04 -0,6 C 0,0 C -3,9 C 85 % 1023,8 hPa 0,0 l/m 0 min 0 min 42 W/m 3,2 km/h (1 Bft) 97,87 %
03.04.2022 09:06 -0,5 C 0,0 C -3,3 C 85 % 1023,8 hPa 0,0 l/m 0 min 0 min 42 W/m 6,4 km/h (2 Bft) 100,00 %
03.04.2022 09:08 -0,4 C 0,0 C -3,3 C 85 % 1023,7 hPa 0,0 l/m 0 min 0 min 44 W/m 0,0 km/h (0 Bft) 100,00 %
03.04.2022 09:10 -0,3 C 0,0 C -3,3 C 85 % 1023,8 hPa 0,0 l/m 0 min 0 min 53 W/m 0,0 km/h (0 Bft) 97,87 %
03.04.2022 09:12 -0,3 C 0,0 C -3,3 C 85 % 1023,7 hPa 0,0 l/m 2 min 0 min 196 W/m 3,2 km/h (1 Bft) 89,36 %
03.04.2022 09:14 -0,2 C 0,0 C -3,3 C 85 % 1023,8 hPa 0,0 l/m 2 min 0 min 288 W/m 3,2 km/h (1 Bft) 34,62 %
03.04.2022 09:16 -0,2 C 0,0 C -3,3 C 85 % 1023,8 hPa 0,0 l/m 2 min 0 min 321 W/m 3,2 km/h (1 Bft) 97,87 %
03.04.2022 09:18 -0,1 C 0,0 C -3,3 C 85 % 1023,8 hPa 0,0 l/m 2 min 0 min 327 W/m 3,2 km/h (1 Bft) 97,87 %
03.04.2022 09:20 -0,1 C 0,6 C -3,3 C 85 % 1023,9 hPa 0,0 l/m 2 min 0 min 334 W/m 0,0 km/h (0 Bft) 91,49 %
03.04.2022 09:22 0,1 C 0,6 C -2,8 C 85 % 1023,8 hPa 0,0 l/m 2 min 0 min 339 W/m 0,0 km/h (0 Bft) 97,87 %
03.04.2022 09:24 0,2 C 1,1 C -2,8 C 85 % 1023,8 hPa 0,0 l/m 2 min 0 min 346 W/m 0,0 km/h (0 Bft) 95,65 %
03.04.2022 09:26 0,3 C 2,2 C -2,8 C 85 % 1023,8 hPa 0,0 l/m 2 min 0 min 351 W/m 0,0 km/h (0 Bft) 95,74 %
03.04.2022 09:28 0,4 C 3,3 C -2,8 C 85 % 1023,8 hPa 0,0 l/m 2 min 0 min 359 W/m 0,0 km/h (0 Bft) 97,87 %
03.04.2022 09:30 0,6 C 5,0 C -2,8 C 84 % 1023,8 hPa 0,0 l/m 2 min 0 min 366 W/m 0,0 km/h (0 Bft) 95,74 %
03.04.2022 09:32 0,7 C 5,6 C -2,8 C 84 % 1023,8 hPa 0,0 l/m 2 min 0 min 371 W/m 0,0 km/h (0 Bft) 95,74 %
03.04.2022 09:34 0,9 C 5,6 C -2,8 C 84 % 1023,8 hPa 0,0 l/m 2 min 0 min 376 W/m 0,0 km/h (0 Bft) 95,74 %
03.04.2022 09:36 1,1 C 6,1 C -2,2 C 83 % 1023,8 hPa 0,0 l/m 2 min 0 min 384 W/m 0,0 km/h (0 Bft) 95,65 %
03.04.2022 09:38 1,2 C 6,7 C -2,2 C 83 % 1023,8 hPa 0,0 l/m 2 min 0 min 389 W/m 0,0 km/h (0 Bft) 95,74 %
03.04.2022 09:40 1,3 C 6,7 C -2,2 C 83 % 1023,9 hPa 0,0 l/m 2 min 0 min 396 W/m 0,0 km/h (0 Bft) 95,74 %
03.04.2022 09:42 1,5 C 6,7 C -2,2 C 82 % 1023,9 hPa 0,0 l/m 2 min 0 min 402 W/m 0,0 km/h (0 Bft) 91,49 %
03.04.2022 09:44 1,7 C 6,1 C -1,7 C 82 % 1023,9 hPa 0,0 l/m 2 min 0 min 408 W/m 0,0 km/h (0 Bft) 95,74 %
03.04.2022 09:46 1,8 C 6,1 C -1,7 C 81 % 1023,9 hPa 0,0 l/m 2 min 0 min 414 W/m 0,0 km/h (0 Bft) 93,62 %
03.04.2022 09:48 2,0 C 6,1 C -1,7 C 81 % 1023,9 hPa 0,0 l/m 2 min 0 min 420 W/m 0,0 km/h (0 Bft) 93,48 %
03.04.2022 09:50 2,1 C 6,1 C -1,1 C 80 % 1023,9 hPa 0,0 l/m 2 min 0 min 425 W/m 0,0 km/h (0 Bft) 95,74 %
03.04.2022 09:52 2,3 C 5,6 C -1,1 C 79 % 1023,9 hPa 0,0 l/m 2 min 0 min 431 W/m 0,0 km/h (0 Bft) 95,74 %
03.04.2022 09:54 2,4 C 5,0 C -1,1 C 79 % 1023,9 hPa 0,0 l/m 2 min 0 min 438 W/m 0,0 km/h (0 Bft) 95,74 %
03.04.2022 09:56 2,7 C 5,0 C -0,6 C 79 % 1024,0 hPa 0,0 l/m 2 min 0 min 443 W/m 0,0 km/h (0 Bft) 93,62 %
03.04.2022 09:58 2,8 C 4,4 C -0,6 C 78 % 1024,0 hPa 0,0 l/m 2 min 0 min 448 W/m 0,0 km/h (0 Bft) 95,74 %
03.04.2022 10:00 2,9 C 5,0 C -0,6 C 77 % 1024,1 hPa 0,0 l/m 2 min 0 min 447 W/m 0,0 km/h (0 Bft) 95,65 %
03.04.2022 10:02 3,1 C 6,1 C -0,6 C 77 % 1024,0 hPa 0,0 l/m 2 min 0 min 452 W/m 0,0 km/h (0 Bft) 91,49 %
03.04.2022 10:04 3,3 C 7,2 C 0,0 C 76 % 1024,0 hPa 0,0 l/m 2 min 0 min 440 W/m 0,0 km/h (0 Bft) 91,49 %
03.04.2022 10:06 3,4 C 8,3 C 0,0 C 75 % 1024,1 hPa 0,0 l/m 2 min 0 min 468 W/m 0,0 km/h (0 Bft) 93,62 %
03.04.2022 10:08 3,6 C 9,4 C 0,6 C 74 % 1024,0 hPa 0,0 l/m 2 min 0 min 477 W/m 9,7 km/h (2 Bft) 94,59 %
03.04.2022 10:10 3,8 C 8,9 C 0,6 C 73 % 1024,0 hPa 0,0 l/m 2 min 0 min 482 W/m 9,7 km/h (2 Bft) 95,74 %
03.04.2022 10:12 4,0 C 9,4 C 0,6 C 72 % 1024,1 hPa 0,0 l/m 2 min 0 min 473 W/m 6,4 km/h (2 Bft) 97,87 %
03.04.2022 10:14 4,2 C 8,9 C 0,6 C 71 % 1024,1 hPa 0,0 l/m 2 min 0 min 411 W/m 3,2 km/h (1 Bft) 95,65 %
03.04.2022 10:16 4,4 C 9,4 C 1,1 C 71 % 1024,1 hPa 0,0 l/m 2 min 0 min 373 W/m 3,2 km/h (1 Bft) 95,74 %
03.04.2022 10:18 4,6 C 10,6 C 1,1 C 70 % 1024,1 hPa 0,0 l/m 2 min 0 min 297 W/m 3,2 km/h (1 Bft) 97,87 %
03.04.2022 10:20 4,8 C 10,6 C 1,7 C 69 % 1024,2 hPa 0,0 l/m 2 min 0 min 331 W/m 9,7 km/h (2 Bft) 97,87 %
03.04.2022 10:22 4,9 C 9,4 C 1,7 C 67 % 1024,1 hPa 0,0 l/m 0 min 0 min 224 W/m 9,7 km/h (2 Bft) 100,00 %
03.04.2022 10:24 5,0 C 10,0 C 2,8 C 67 % 1024,2 hPa 0,0 l/m 2 min 0 min 341 W/m 6,4 km/h (2 Bft) 97,87 %
03.04.2022 10:26 5,1 C 10,6 C 3,3 C 66 % 1024,2 hPa 0,0 l/m 2 min 0 min 378 W/m 6,4 km/h (2 Bft) 100,00 %
03.04.2022 10:28 5,2 C 9,4 C 3,3 C 65 % 1024,1 hPa 0,0 l/m 0 min 0 min 223 W/m 6,4 km/h (2 Bft) 100,00 %
03.04.2022 10:30 5,2 C 9,4 C 3,3 C 64 % 1024,1 hPa 0,0 l/m 2 min 0 min 329 W/m 12,9 km/h (3 Bft) 100,00 %
03.04.2022 10:32 5,3 C 9,4 C 3,3 C 64 % 1024,1 hPa 0,0 l/m 2 min 0 min 463 W/m 6,4 km/h (2 Bft) 100,00 %
03.04.2022 10:34 5,4 C 9,4 C 3,9 C 65 % 1024,1 hPa 0,0 l/m 2 min 0 min 371 W/m 6,4 km/h (2 Bft) 100,00 %
03.04.2022 10:36 5,6 C 10,0 C 4,4 C 64 % 1024,1 hPa 0,0 l/m 0 min 0 min 139 W/m 3,2 km/h (1 Bft) 100,00 %
03.04.2022 10:38 5,7 C 10,6 C 5,0 C 63 % 1024,1 hPa 0,0 l/m 0 min 0 min 164 W/m 6,4 km/h (2 Bft) 97,87 %
03.04.2022 10:40 5,7 C 10,0 C 4,4 C 63 % 1024,2 hPa 0,0 l/m 2 min 0 min 383 W/m 9,7 km/h (2 Bft) 100,00 %
03.04.2022 10:42 5,7 C 8,9 C 5,0 C 62 % 1024,2 hPa 0,0 l/m 0 min 0 min 165 W/m 16,1 km/h (3 Bft) 100,00 %
03.04.2022 10:44 5,6 C 7,8 C 4,4 C 62 % 1024,1 hPa 0,0 l/m 2 min 0 min 412 W/m 9,7 km/h (2 Bft) 100,00 %
03.04.2022 10:46 5,6 C 7,8 C 5,0 C 61 % 1024,1 hPa 0,0 l/m 2 min 0 min 462 W/m 12,9 km/h (3 Bft) 100,00 %
03.04.2022 10:48 5,5 C 7,2 C 4,4 C 61 % 1024,1 hPa 0,0 l/m 2 min 0 min 552 W/m 12,9 km/h (3 Bft) 100,00 %
03.04.2022 10:50 5,5 C 7,2 C 4,4 C 62 % 1024,1 hPa 0,0 l/m 2 min 0 min 554 W/m 6,4 km/h (2 Bft) 100,00 %
03.04.2022 10:52 5,6 C 7,2 C 5,0 C 62 % 1024,1 hPa 0,0 l/m 0 min 0 min 241 W/m 9,7 km/h (2 Bft) 100,00 %
03.04.2022 10:54 5,6 C 7,2 C 4,4 C 62 % 1024,1 hPa 0,0 l/m 0 min 0 min 223 W/m 9,7 km/h (2 Bft) 100,00 %
03.04.2022 10:56 5,6 C 7,2 C 4,4 C 62 % 1024,1 hPa 0,0 l/m 0 min 0 min 248 W/m 16,1 km/h (3 Bft) 100,00 %
03.04.2022 10:58 5,6 C 7,8 C 4,4 C 62 % 1024,1 hPa 0,0 l/m 0 min 0 min 208 W/m 9,7 km/h (2 Bft) 100,00 %
03.04.2022 11:00 5,6 C 7,2 C 3,9 C 61 % 1024,1 hPa 0,0 l/m 0 min 0 min 181 W/m 6,4 km/h (2 Bft) 100,00 %
03.04.2022 11:02 5,6 C 6,7 C 3,3 C 62 % 1024,2 hPa 0,0 l/m 0 min 0 min 259 W/m 16,1 km/h (3 Bft) 97,87 %
03.04.2022 11:04 5,6 C 6,7 C 2,8 C 61 % 1024,2 hPa 0,0 l/m 2 min 0 min 489 W/m 12,9 km/h (3 Bft) 100,00 %
03.04.2022 11:06 5,6 C 6,7 C 3,3 C 61 % 1024,2 hPa 0,0 l/m 2 min 0 min 379 W/m 12,9 km/h (3 Bft) 100,00 %
03.04.2022 11:08 5,6 C 7,2 C 3,3 C 62 % 1024,2 hPa 0,0 l/m 2 min 0 min 424 W/m 9,7 km/h (2 Bft) 100,00 %
03.04.2022 11:10 5,6 C 7,2 C 3,3 C 61 % 1024,2 hPa 0,0 l/m 2 min 0 min 379 W/m 12,9 km/h (3 Bft) 100,00 %
03.04.2022 11:12 5,6 C 7,8 C 3,3 C 62 % 1024,2 hPa 0,0 l/m 2 min 0 min 426 W/m 12,9 km/h (3 Bft) 100,00 %
03.04.2022 11:14 5,7 C 7,8 C 3,3 C 62 % 1024,3 hPa 0,0 l/m 2 min 0 min 404 W/m 12,9 km/h (3 Bft) 97,87 %
03.04.2022 11:16 5,7 C 7,8 C 3,3 C 62 % 1024,2 hPa 0,0 l/m 2 min 0 min 432 W/m 9,7 km/h (2 Bft) 100,00 %
03.04.2022 11:18 5,7 C 7,8 C 3,3 C 62 % 1024,2 hPa 0,0 l/m 2 min 0 min 416 W/m 12,9 km/h (3 Bft) 100,00 %
03.04.2022 11:20 5,8 C 7,8 C 3,3 C 62 % 1024,2 hPa 0,0 l/m 2 min 0 min 413 W/m 22,5 km/h (4 Bft) 100,00 %
03.04.2022 11:22 5,8 C 7,8 C 3,3 C 61 % 1024,2 hPa 0,0 l/m 2 min 0 min 463 W/m 6,4 km/h (2 Bft) 97,87 %
03.04.2022 11:24 5,8 C 7,8 C 3,9 C 61 % 1024,2 hPa 0,0 l/m 2 min 0 min 400 W/m 9,7 km/h (2 Bft) 100,00 %
03.04.2022 11:26 5,8 C 7,2 C 3,3 C 61 % 1024,2 hPa 0,0 l/m 2 min 0 min 341 W/m 12,9 km/h (3 Bft) 100,00 %
03.04.2022 11:28 5,8 C 7,2 C 2,8 C 61 % 1024,2 hPa 0,0 l/m 0 min 0 min 290 W/m 6,4 km/h (2 Bft) 100,00 %
03.04.2022 11:30 5,8 C 7,2 C 2,8 C 61 % 1024,2 hPa 0,0 l/m 0 min 0 min 245 W/m 22,5 km/h (4 Bft) 100,00 %
03.04.2022 11:32 5,8 C 6,7 C 2,2 C 61 % 1024,3 hPa 0,0 l/m 0 min 0 min 219 W/m 19,3 km/h (3 Bft) 100,00 %
03.04.2022 11:34 5,8 C 6,1 C 2,2 C 61 % 1024,3 hPa 0,0 l/m 0 min 0 min 212 W/m 12,9 km/h (3 Bft) 97,87 %
03.04.2022 11:36 5,7 C 6,1 C 1,7 C 61 % 1024,3 hPa 0,0 l/m 0 min 0 min 221 W/m 9,7 km/h (2 Bft) 100,00 %
03.04.2022 11:38 5,7 C 6,1 C 1,7 C 61 % 1024,3 hPa 0,0 l/m 0 min 0 min 238 W/m 16,1 km/h (3 Bft) 100,00 %
03.04.2022 11:40 5,6 C 6,1 C 1,7 C 61 % 1024,3 hPa 0,0 l/m 0 min 0 min 259 W/m 16,1 km/h (3 Bft) 100,00 %
03.04.2022 11:42 5,6 C 6,1 C 1,7 C 61 % 1024,3 hPa 0,0 l/m 0 min 0 min 275 W/m 12,9 km/h (3 Bft) 100,00 %
03.04.2022 11:44 5,6 C 6,1 C 2,2 C 61 % 1024,2 hPa 0,0 l/m 0 min 0 min 280 W/m 9,7 km/h (2 Bft) 100,00 %
03.04.2022 11:46 5,6 C 6,1 C 2,2 C 61 % 1024,3 hPa 0,0 l/m 0 min 0 min 269 W/m 16,1 km/h (3 Bft) 97,83 %
03.04.2022 11:48 5,4 C 6,1 C 1,7 C 60 % 1024,3 hPa 0,0 l/m 0 min 0 min 240 W/m 6,4 km/h (2 Bft) 100,00 %
03.04.2022 11:50 5,4 C 5,6 C 1,7 C 60 % 1024,3 hPa 0,0 l/m 0 min 0 min 214 W/m 12,9 km/h (3 Bft) 100,00 %
03.04.2022 11:52 5,3 C 5,6 C 1,7 C 60 % 1024,3 hPa 0,0 l/m 0 min 0 min 198 W/m 9,7 km/h (2 Bft) 97,87 %
03.04.2022 11:54 5,2 C 5,6 C 1,7 C 60 % 1024,2 hPa 0,0 l/m 0 min 0 min 189 W/m 12,9 km/h (3 Bft) 95,74 %
03.04.2022 11:56 5,2 C 5,6 C 1,7 C 61 % 1024,2 hPa 0,0 l/m 0 min 0 min 190 W/m 9,7 km/h (2 Bft) 95,74 %
03.04.2022 11:58 5,2 C 5,6 C 1,7 C 61 % 1024,2 hPa 0,0 l/m 0 min 0 min 203 W/m 9,7 km/h (2 Bft) 95,65 %
03.04.2022 12:00 5,2 C 5,6 C 1,7 C 61 % 1024,2 hPa 0,0 l/m 0 min 0 min 228 W/m 12,9 km/h (3 Bft) 95,74 %
03.04.2022 12:02 5,2 C 5,6 C 1,7 C 61 % 1024,2 hPa 0,0 l/m 0 min 0 min 249 W/m 12,9 km/h (3 Bft) 95,74 %
03.04.2022 12:04 5,2 C 5,6 C 1,7 C 61 % 1024,2 hPa 0,0 l/m 0 min 0 min 263 W/m 12,9 km/h (3 Bft) 95,74 %
03.04.2022 12:08 5,2 C 6,1 C 2,2 C 61 % 1024,2 hPa 0,0 l/m 0 min 0 min 284 W/m 16,1 km/h (3 Bft) 78,72 %
03.04.2022 12:10 5,3 C 6,1 C 2,2 C 61 % 1024,1 hPa 0,0 l/m 0 min 0 min 292 W/m 6,4 km/h (2 Bft) 79,31 %
03.04.2022 12:12 5,3 C 6,7 C 2,8 C 61 % 1024,1 hPa 0,0 l/m 2 min 0 min 353 W/m 9,7 km/h (2 Bft) 93,62 %
03.04.2022 12:14 5,3 C 6,7 C 2,8 C 62 % 1024,1 hPa 0,0 l/m 2 min 0 min 370 W/m 6,4 km/h (2 Bft) 95,74 %
03.04.2022 12:16 5,4 C 6,7 C 3,3 C 62 % 1024,1 hPa 0,0 l/m 2 min 0 min 334 W/m 6,4 km/h (2 Bft) 95,74 %
03.04.2022 12:18 5,4 C 7,2 C 4,4 C 61 % 1024,1 hPa 0,0 l/m 2 min 0 min 353 W/m 9,7 km/h (2 Bft) 95,74 %
03.04.2022 12:20 5,6 C 8,3 C 5,0 C 62 % 1024,0 hPa 0,0 l/m 2 min 0 min 397 W/m 9,7 km/h (2 Bft) 97,87 %
03.04.2022 12:22 5,7 C 9,4 C 5,6 C 62 % 1024,1 hPa 0,0 l/m 2 min 0 min 485 W/m 12,9 km/h (3 Bft) 95,65 %
03.04.2022 12:24 5,8 C 9,4 C 6,1 C 62 % 1024,1 hPa 0,0 l/m 2 min 0 min 437 W/m 22,5 km/h (4 Bft) 95,74 %
03.04.2022 12:26 5,9 C 10,0 C 6,1 C 61 % 1024,1 hPa 0,0 l/m 2 min 0 min 408 W/m 19,3 km/h (3 Bft) 93,62 %
03.04.2022 12:28 6,1 C 11,1 C 7,2 C 61 % 1024,0 hPa 0,0 l/m 2 min 0 min 801 W/m 9,7 km/h (2 Bft) 95,74 %
03.04.2022 12:30 6,2 C 11,7 C 8,3 C 62 % 1024,0 hPa 0,0 l/m 2 min 0 min 797 W/m 12,9 km/h (3 Bft) 97,87 %
03.04.2022 12:32 6,4 C 12,2 C 9,4 C 63 % 1024,0 hPa 0,0 l/m 2 min 0 min 828 W/m 12,9 km/h (3 Bft) 98,11 %
03.04.2022 12:34 6,7 C 12,2 C 10,0 C 62 % 1024,0 hPa 0,0 l/m 2 min 0 min 810 W/m 9,7 km/h (2 Bft) 95,74 %
03.04.2022 12:36 6,9 C 12,2 C 10,6 C 62 % 1023,9 hPa 0,0 l/m 2 min 0 min 817 W/m 16,1 km/h (3 Bft) 100,00 %
03.04.2022 12:38 7,1 C 12,8 C 11,1 C 63 % 1023,9 hPa 0,0 l/m 2 min 0 min 854 W/m 6,4 km/h (2 Bft) 100,00 %
03.04.2022 12:40 7,3 C 11,7 C 10,6 C 63 % 1023,9 hPa 0,0 l/m 2 min 0 min 880 W/m 16,1 km/h (3 Bft) 97,87 %
03.04.2022 12:42 7,5 C 12,2 C 11,1 C 63 % 1023,9 hPa 0,0 l/m 2 min 0 min 901 W/m 6,4 km/h (2 Bft) 97,96 %
03.04.2022 12:44 7,6 C 11,7 C 10,6 C 62 % 1023,9 hPa 0,0 l/m 2 min 0 min 914 W/m 9,7 km/h (2 Bft) 100,00 %
03.04.2022 12:46 7,6 C 11,1 C 8,9 C 61 % 1023,9 hPa 0,0 l/m 2 min 0 min 836 W/m 16,1 km/h (3 Bft) 100,00 %
03.04.2022 12:48 7,5 C 8,9 C 6,7 C 61 % 1023,9 hPa 0,0 l/m 0 min 0 min 173 W/m 12,9 km/h (3 Bft) 100,00 %
03.04.2022 12:50 7,4 C 7,8 C 5,0 C 61 % 1023,9 hPa 0,0 l/m 0 min 0 min 137 W/m 12,9 km/h (3 Bft) 97,87 %
03.04.2022 12:52 7,2 C 6,7 C 3,9 C 61 % 1023,9 hPa 0,0 l/m 0 min 0 min 131 W/m 6,4 km/h (2 Bft) 97,87 %
03.04.2022 12:54 7,0 C 7,8 C 4,4 C 62 % 1023,9 hPa 0,0 l/m 2 min 0 min 615 W/m 9,7 km/h (2 Bft) 100,00 %
03.04.2022 12:56 7,0 C 10,0 C 6,1 C 63 % 1023,9 hPa 0,0 l/m 2 min 0 min 857 W/m 12,9 km/h (3 Bft) 100,00 %
03.04.2022 12:58 7,1 C 11,7 C 7,2 C 64 % 1023,8 hPa 0,0 l/m 2 min 0 min 890 W/m 12,9 km/h (3 Bft) 100,00 %
03.04.2022 13:00 7,3 C 12,2 C 7,8 C 64 % 1023,8 hPa 0,0 l/m 2 min 0 min 903 W/m 12,9 km/h (3 Bft) 100,00 %
03.04.2022 13:02 7,5 C 12,8 C 7,8 C 64 % 1023,8 hPa 0,0 l/m 2 min 0 min 915 W/m 12,9 km/h (3 Bft) 100,00 %
03.04.2022 13:04 7,6 C 12,2 C 7,2 C 63 % 1023,8 hPa 0,0 l/m 2 min 0 min 903 W/m 12,9 km/h (3 Bft) 100,00 %
03.04.2022 13:06 7,7 C 12,2 C 7,2 C 62 % 1023,7 hPa 0,0 l/m 2 min 0 min 934 W/m 12,9 km/h (3 Bft) 98,11 %
03.04.2022 13:08 7,8 C 12,2 C 6,7 C 62 % 1023,7 hPa 0,0 l/m 2 min 0 min 924 W/m 9,7 km/h (2 Bft) 100,00 %
03.04.2022 13:10 8,0 C 11,1 C 5,6 C 61 % 1023,7 hPa 0,0 l/m 2 min 0 min 888 W/m 12,9 km/h (3 Bft) 97,87 %
03.04.2022 13:12 8,1 C 11,1 C 5,6 C 60 % 1023,6 hPa 0,0 l/m 2 min 0 min 893 W/m 6,4 km/h (2 Bft) 97,87 %
03.04.2022 13:14 8,1 C 11,7 C 5,6 C 60 % 1023,6 hPa 0,0 l/m 2 min 0 min 902 W/m 9,7 km/h (2 Bft) 100,00 %
03.04.2022 13:16 8,1 C 11,7 C 5,6 C 60 % 1023,6 hPa 0,0 l/m 2 min 0 min 938 W/m 16,1 km/h (3 Bft) 100,00 %
03.04.2022 13:18 8,2 C 11,1 C 5,6 C 59 % 1023,6 hPa 0,0 l/m 2 min 0 min 776 W/m 12,9 km/h (3 Bft) 100,00 %
03.04.2022 13:20 8,2 C 10,6 C 5,0 C 59 % 1023,6 hPa 0,0 l/m 0 min 0 min 305 W/m 19,3 km/h (3 Bft) 100,00 %
03.04.2022 13:22 8,2 C 11,1 C 5,0 C 60 % 1023,5 hPa 0,0 l/m 2 min 0 min 402 W/m 9,7 km/h (2 Bft) 100,00 %
03.04.2022 13:24 8,2 C 11,1 C 5,6 C 59 % 1023,5 hPa 0,0 l/m 2 min 0 min 875 W/m 9,7 km/h (2 Bft) 97,87 %
03.04.2022 13:26 8,3 C 12,2 C 6,1 C 60 % 1023,5 hPa 0,0 l/m 2 min 0 min 916 W/m 12,9 km/h (3 Bft) 100,00 %
03.04.2022 13:28 8,3 C 12,2 C 5,0 C 60 % 1023,4 hPa 0,0 l/m 2 min 0 min 595 W/m 9,7 km/h (2 Bft) 100,00 %
03.04.2022 13:30 8,2 C 12,2 C 5,6 C 60 % 1023,4 hPa 0,0 l/m 2 min 0 min 395 W/m 6,4 km/h (2 Bft) 100,00 %
03.04.2022 13:32 8,3 C 12,8 C 5,6 C 60 % 1023,3 hPa 0,0 l/m 2 min 0 min 799 W/m 6,4 km/h (2 Bft) 100,00 %
03.04.2022 13:34 8,3 C 13,3 C 6,1 C 61 % 1023,3 hPa 0,0 l/m 2 min 0 min 810 W/m 9,7 km/h (2 Bft) 97,87 %
03.04.2022 13:36 8,5 C 13,9 C 6,1 C 60 % 1023,3 hPa 0,0 l/m 2 min 0 min 854 W/m 16,1 km/h (3 Bft) 100,00 %
03.04.2022 13:38 8,6 C 13,9 C 6,1 C 59 % 1023,3 hPa 0,0 l/m 2 min 0 min 821 W/m 12,9 km/h (3 Bft) 100,00 %
03.04.2022 13:40 8,7 C 12,2 C 5,6 C 58 % 1023,3 hPa 0,0 l/m 2 min 0 min 461 W/m 9,7 km/h (2 Bft) 97,87 %
03.04.2022 13:42 8,6 C 11,1 C 5,6 C 58 % 1023,3 hPa 0,0 l/m 0 min 0 min 266 W/m 16,1 km/h (3 Bft) 100,00 %
03.04.2022 13:44 8,6 C 10,0 C 5,0 C 58 % 1023,3 hPa 0,0 l/m 0 min 0 min 309 W/m 12,9 km/h (3 Bft) 100,00 %
03.04.2022 13:46 8,4 C 10,0 C 4,4 C 57 % 1023,2 hPa 0,0 l/m 0 min 0 min 312 W/m 9,7 km/h (2 Bft) 100,00 %
03.04.2022 13:48 8,3 C 9,4 C 4,4 C 57 % 1023,2 hPa 0,0 l/m 0 min 0 min 287 W/m 9,7 km/h (2 Bft) 95,74 %
03.04.2022 13:50 8,1 C 9,4 C 4,4 C 57 % 1023,2 hPa 0,0 l/m 0 min 0 min 276 W/m 12,9 km/h (3 Bft) 100,00 %
03.04.2022 13:52 8,1 C 9,4 C 4,4 C 58 % 1023,2 hPa 0,0 l/m 0 min 0 min 332 W/m 6,4 km/h (2 Bft) 100,00 %
03.04.2022 13:54 8,1 C 10,0 C 4,4 C 58 % 1023,1 hPa 0,0 l/m 2 min 0 min 445 W/m 6,4 km/h (2 Bft) 100,00 %
03.04.2022 13:56 8,1 C 11,7 C 5,0 C 59 % 1023,1 hPa 0,0 l/m 2 min 0 min 654 W/m 16,1 km/h (3 Bft) 97,87 %
03.04.2022 13:58 8,3 C 13,3 C 5,0 C 59 % 1023,1 hPa 0,0 l/m 2 min 0 min 857 W/m 16,1 km/h (3 Bft) 97,87 %
03.04.2022 14:00 8,4 C 14,4 C 5,6 C 59 % 1023,0 hPa 0,0 l/m 2 min 0 min 825 W/m 12,9 km/h (3 Bft) 100,00 %
03.04.2022 14:02 8,5 C 14,4 C 5,6 C 58 % 1023,0 hPa 0,0 l/m 2 min 0 min 766 W/m 9,7 km/h (2 Bft) 100,00 %
03.04.2022 14:04 8,7 C 15,0 C 5,6 C 58 % 1023,0 hPa 0,0 l/m 2 min 0 min 722 W/m 9,7 km/h (2 Bft) 100,00 %
03.04.2022 14:06 8,8 C 13,9 C 5,6 C 57 % 1022,9 hPa 0,0 l/m 2 min 0 min 673 W/m 9,7 km/h (2 Bft) 97,83 %
03.04.2022 14:08 8,8 C 12,2 C 5,6 C 57 % 1022,9 hPa 0,0 l/m 2 min 0 min 390 W/m 12,9 km/h (3 Bft) 100,00 %
03.04.2022 14:10 8,8 C 12,2 C 5,6 C 57 % 1022,9 hPa 0,0 l/m 2 min 0 min 636 W/m 12,9 km/h (3 Bft) 97,87 %
03.04.2022 14:12 8,7 C 10,6 C 5,0 C 57 % 1023,0 hPa 0,0 l/m 2 min 0 min 408 W/m 12,9 km/h (3 Bft) 97,87 %
03.04.2022 14:14 8,7 C 11,1 C 5,0 C 57 % 1022,9 hPa 0,0 l/m 2 min 0 min 437 W/m 6,4 km/h (2 Bft) 97,87 %
03.04.2022 14:16 8,7 C 12,8 C 5,6 C 58 % 1022,8 hPa 0,0 l/m 2 min 0 min 934 W/m 12,9 km/h (3 Bft) 97,87 %
03.04.2022 14:18 8,8 C 13,3 C 5,6 C 58 % 1022,8 hPa 0,0 l/m 2 min 0 min 934 W/m 19,3 km/h (3 Bft) 97,92 %
03.04.2022 14:20 8,9 C 12,2 C 5,6 C 57 % 1022,9 hPa 0,0 l/m 2 min 0 min 676 W/m 16,1 km/h (3 Bft) 95,74 %
03.04.2022 14:22 8,9 C 12,8 C 5,0 C 56 % 1022,8 hPa 0,0 l/m 2 min 0 min 768 W/m 12,9 km/h (3 Bft) 95,74 %
03.04.2022 14:24 8,9 C 13,3 C 5,6 C 56 % 1022,8 hPa 0,0 l/m 2 min 0 min 871 W/m 19,3 km/h (3 Bft) 97,87 %
03.04.2022 14:26 9,0 C 12,8 C 5,6 C 56 % 1022,8 hPa 0,0 l/m 2 min 0 min 598 W/m 19,3 km/h (3 Bft) 93,62 %
03.04.2022 14:28 8,9 C 11,1 C 5,0 C 55 % 1022,8 hPa 0,0 l/m 0 min 0 min 320 W/m 12,9 km/h (3 Bft) 95,74 %
03.04.2022 14:30 8,7 C 10,6 C 5,0 C 56 % 1022,8 hPa 0,0 l/m 0 min 0 min 248 W/m 16,1 km/h (3 Bft) 95,65 %
03.04.2022 14:32 8,6 C 10,0 C 5,0 C 56 % 1022,7 hPa 0,0 l/m 0 min 0 min 201 W/m 9,7 km/h (2 Bft) 93,62 %
03.04.2022 14:34 8,5 C 8,9 C 4,4 C 56 % 1022,7 hPa 0,0 l/m 0 min 0 min 173 W/m 6,4 km/h (2 Bft) 95,74 %
03.04.2022 14:36 8,4 C 8,3 C 4,4 C 55 % 1022,7 hPa 0,0 l/m 0 min 0 min 160 W/m 12,9 km/h (3 Bft) 93,62 %
03.04.2022 14:38 8,2 C 7,8 C 4,4 C 55 % 1022,7 hPa 0,0 l/m 0 min 0 min 146 W/m 6,4 km/h (2 Bft) 95,74 %
03.04.2022 14:40 8,1 C 7,8 C 3,9 C 57 % 1022,7 hPa 0,0 l/m 0 min 0 min 126 W/m 9,7 km/h (2 Bft) 98,11 %
03.04.2022 14:42 8,0 C 7,8 C 3,9 C 57 % 1022,8 hPa 0,0 l/m 0 min 0 min 102 W/m 19,3 km/h (3 Bft) 93,62 %
03.04.2022 14:44 7,9 C 7,2 C 3,9 C 58 % 1022,8 hPa 0,0 l/m 0 min 0 min 82 W/m 9,7 km/h (2 Bft) 91,49 %
03.04.2022 14:46 7,9 C 7,2 C 3,3 C 58 % 1022,8 hPa 0,0 l/m 0 min 0 min 67 W/m 19,3 km/h (3 Bft) 95,74 %
03.04.2022 14:48 7,8 C 6,7 C 3,3 C 58 % 1022,8 hPa 0,0 l/m 0 min 0 min 57 W/m 6,4 km/h (2 Bft) 95,74 %
03.04.2022 14:50 7,7 C 6,7 C 3,3 C 58 % 1022,8 hPa 0,0 l/m 0 min 0 min 48 W/m 12,9 km/h (3 Bft) 72,34 %
03.04.2022 14:52 7,7 C 6,7 C 3,3 C 58 % 1022,8 hPa 0,0 l/m 0 min 0 min 43 W/m 12,9 km/h (3 Bft) 78,57 %
03.04.2022 14:54 7,6 C 6,7 C 2,8 C 59 % 1022,8 hPa 0,0 l/m 0 min 0 min 39 W/m 16,1 km/h (3 Bft) 97,87 %
03.04.2022 14:56 7,4 C 6,7 C 2,8 C 59 % 1022,8 hPa 0,0 l/m 0 min 0 min 37 W/m 16,1 km/h (3 Bft) 97,87 %
03.04.2022 14:58 7,3 C 6,1 C 2,8 C 60 % 1022,8 hPa 0,0 l/m 0 min 0 min 37 W/m 9,7 km/h (2 Bft) 93,62 %
03.04.2022 15:00 7,2 C 6,1 C 2,8 C 60 % 1022,8 hPa 0,0 l/m 0 min 0 min 36 W/m 9,7 km/h (2 Bft) 97,87 %
03.04.2022 15:02 7,1 C 6,1 C 2,8 C 60 % 1022,8 hPa 0,0 l/m 0 min 0 min 37 W/m 19,3 km/h (3 Bft) 97,83 %
03.04.2022 15:04 7,1 C 6,1 C 2,8 C 61 % 1022,8 hPa 0,0 l/m 0 min 0 min 39 W/m 12,9 km/h (3 Bft) 97,67 %
03.04.2022 15:06 7,0 C 6,1 C 2,8 C 63 % 1022,9 hPa 0,0 l/m 0 min 0 min 44 W/m 22,5 km/h (4 Bft) 95,24 %
03.04.2022 15:08 6,8 C 6,1 C 2,2 C 64 % 1022,9 hPa 0,0 l/m 0 min 0 min 55 W/m 9,7 km/h (2 Bft) 95,74 %
03.04.2022 15:10 6,7 C 6,1 C 2,2 C 66 % 1022,8 hPa 0,0 l/m 0 min 0 min 70 W/m 9,7 km/h (2 Bft) 93,62 %
03.04.2022 15:12 6,6 C 5,6 C 2,2 C 66 % 1022,8 hPa 0,0 l/m 0 min 0 min 85 W/m 16,1 km/h (3 Bft) 96,00 %
03.04.2022 15:14 6,5 C 5,6 C 2,2 C 66 % 1022,8 hPa 0,0 l/m 0 min 0 min 98 W/m 22,5 km/h (4 Bft) 97,92 %
03.04.2022 15:16 6,5 C 6,1 C 2,2 C 65 % 1022,8 hPa 0,0 l/m 0 min 0 min 106 W/m 16,1 km/h (3 Bft) 95,74 %
03.04.2022 15:18 6,4 C 6,1 C 2,2 C 65 % 1022,8 hPa 0,0 l/m 0 min 0 min 115 W/m 16,1 km/h (3 Bft) 95,74 %
03.04.2022 15:20 6,4 C 6,1 C 2,2 C 65 % 1022,8 hPa 0,0 l/m 0 min 0 min 120 W/m 6,4 km/h (2 Bft) 97,87 %
03.04.2022 15:22 6,4 C 6,1 C 2,2 C 65 % 1022,8 hPa 0,0 l/m 0 min 0 min 124 W/m 9,7 km/h (2 Bft) 95,74 %
03.04.2022 15:24 6,4 C 6,1 C 2,2 C 65 % 1022,7 hPa 0,0 l/m 0 min 0 min 125 W/m 9,7 km/h (2 Bft) 97,87 %
03.04.2022 15:26 6,4 C 6,1 C 2,2 C 65 % 1022,7 hPa 0,0 l/m 0 min 0 min 130 W/m 12,9 km/h (3 Bft) 95,65 %
03.04.2022 15:28 6,4 C 6,1 C 2,2 C 65 % 1022,7 hPa 0,0 l/m 0 min 0 min 148 W/m 16,1 km/h (3 Bft) 97,87 %
03.04.2022 15:30 6,4 C 6,7 C 2,8 C 65 % 1022,7 hPa 0,0 l/m 0 min 0 min 174 W/m 12,9 km/h (3 Bft) 97,87 %
03.04.2022 15:32 6,4 C 6,7 C 2,8 C 65 % 1022,6 hPa 0,0 l/m 0 min 0 min 205 W/m 9,7 km/h (2 Bft) 93,62 %
03.04.2022 15:34 6,5 C 7,8 C 2,8 C 65 % 1022,7 hPa 0,0 l/m 0 min 0 min 239 W/m 12,9 km/h (3 Bft) 97,87 %
03.04.2022 15:36 6,6 C 10,0 C 3,3 C 65 % 1022,6 hPa 0,0 l/m 0 min 0 min 281 W/m 6,4 km/h (2 Bft) 97,87 %
03.04.2022 15:38 6,8 C 11,7 C 3,3 C 65 % 1022,6 hPa 0,0 l/m 2 min 0 min 708 W/m 12,9 km/h (3 Bft) 97,83 %
03.04.2022 15:40 7,1 C 12,8 C 3,3 C 63 % 1022,5 hPa 0,0 l/m 2 min 0 min 720 W/m 9,7 km/h (2 Bft) 97,87 %
03.04.2022 15:42 7,2 C 12,8 C 3,9 C 63 % 1022,5 hPa 0,0 l/m 2 min 0 min 608 W/m 6,4 km/h (2 Bft) 95,74 %
03.04.2022 15:44 7,4 C 12,2 C 3,9 C 63 % 1022,5 hPa 0,0 l/m 2 min 0 min 363 W/m 12,9 km/h (3 Bft) 95,74 %
03.04.2022 15:46 7,6 C 12,2 C 4,4 C 63 % 1022,5 hPa 0,0 l/m 2 min 0 min 482 W/m 6,4 km/h (2 Bft) 97,87 %
03.04.2022 15:48 7,7 C 11,7 C 4,4 C 62 % 1022,4 hPa 0,0 l/m 2 min 0 min 441 W/m 6,4 km/h (2 Bft) 97,87 %
03.04.2022 15:50 7,8 C 10,6 C 3,9 C 62 % 1022,5 hPa 0,0 l/m 2 min 0 min 403 W/m 9,7 km/h (2 Bft) 97,83 %
03.04.2022 15:52 8,0 C 11,1 C 4,4 C 62 % 1022,4 hPa 0,0 l/m 2 min 0 min 494 W/m 9,7 km/h (2 Bft) 97,87 %
03.04.2022 15:54 8,0 C 10,6 C 4,4 C 61 % 1022,4 hPa 0,0 l/m 2 min 0 min 461 W/m 12,9 km/h (3 Bft) 97,87 %
03.04.2022 15:56 8,1 C 10,0 C 4,4 C 61 % 1022,4 hPa 0,0 l/m 2 min 0 min 419 W/m 6,4 km/h (2 Bft) 97,87 %
03.04.2022 15:58 8,1 C 10,0 C 4,4 C 61 % 1022,3 hPa 0,0 l/m 2 min 0 min 385 W/m 9,7 km/h (2 Bft) 95,74 %
03.04.2022 16:00 8,1 C 10,0 C 4,4 C 60 % 1022,2 hPa 0,0 l/m 2 min 0 min 366 W/m 6,4 km/h (2 Bft) 97,83 %
03.04.2022 16:02 8,0 C 9,4 C 4,4 C 60 % 1022,2 hPa 0,0 l/m 2 min 0 min 347 W/m 9,7 km/h (2 Bft) 97,87 %
03.04.2022 16:04 8,0 C 9,4 C 4,4 C 60 % 1022,2 hPa 0,0 l/m 2 min 0 min 329 W/m 9,7 km/h (2 Bft) 98,00 %
03.04.2022 16:06 7,9 C 8,9 C 4,4 C 61 % 1022,1 hPa 0,0 l/m 2 min 0 min 310 W/m 12,9 km/h (3 Bft) 97,14 %
03.04.2022 16:08 7,9 C 8,3 C 4,4 C 61 % 1022,1 hPa 0,0 l/m 0 min 0 min 273 W/m 12,9 km/h (3 Bft) 97,87 %
03.04.2022 16:10 7,9 C 8,3 C 4,4 C 61 % 1022,1 hPa 0,0 l/m 0 min 0 min 230 W/m 12,9 km/h (3 Bft) 95,74 %
03.04.2022 16:12 7,9 C 8,3 C 4,4 C 61 % 1022,1 hPa 0,0 l/m 0 min 0 min 215 W/m 9,7 km/h (2 Bft) 97,87 %
03.04.2022 16:14 7,9 C 8,3 C 4,4 C 62 % 1022,1 hPa 0,0 l/m 0 min 0 min 227 W/m 9,7 km/h (2 Bft) 97,87 %
03.04.2022 16:16 7,9 C 8,3 C 3,9 C 62 % 1022,0 hPa 0,0 l/m 0 min 0 min 237 W/m 19,3 km/h (3 Bft) 97,83 %
03.04.2022 16:18 7,9 C 8,3 C 3,9 C 61 % 1022,1 hPa 0,0 l/m 0 min 0 min 245 W/m 12,9 km/h (3 Bft) 97,87 %
03.04.2022 16:20 7,8 C 8,3 C 3,9 C 62 % 1022,0 hPa 0,0 l/m 0 min 0 min 252 W/m 12,9 km/h (3 Bft) 94,44 %
03.04.2022 16:22 7,8 C 8,3 C 3,9 C 62 % 1022,0 hPa 0,0 l/m 0 min 0 min 261 W/m 12,9 km/h (3 Bft) 100,00 %
03.04.2022 16:24 7,8 C 7,8 C 3,9 C 62 % 1022,0 hPa 0,0 l/m 2 min 0 min 269 W/m 12,9 km/h (3 Bft) 97,87 %
03.04.2022 16:26 7,8 C 8,3 C 3,9 C 62 % 1022,0 hPa 0,0 l/m 2 min 0 min 272 W/m 16,1 km/h (3 Bft) 97,96 %
03.04.2022 16:28 7,8 C 8,3 C 3,9 C 62 % 1021,9 hPa 0,0 l/m 2 min 0 min 278 W/m 12,9 km/h (3 Bft) 95,74 %
03.04.2022 16:30 7,8 C 8,9 C 3,9 C 61 % 1021,9 hPa 0,0 l/m 2 min 0 min 306 W/m 22,5 km/h (4 Bft) 100,00 %
03.04.2022 16:32 7,8 C 8,9 C 4,4 C 61 % 1021,9 hPa 0,0 l/m 2 min 0 min 310 W/m 6,4 km/h (2 Bft) 97,87 %
03.04.2022 16:34 7,8 C 8,3 C 4,4 C 62 % 1021,9 hPa 0,0 l/m 2 min 0 min 273 W/m 9,7 km/h (2 Bft) 97,92 %
03.04.2022 16:36 7,8 C 8,3 C 4,4 C 63 % 1021,8 hPa 0,0 l/m 0 min 0 min 249 W/m 12,9 km/h (3 Bft) 97,87 %
03.04.2022 16:38 7,8 C 8,3 C 4,4 C 63 % 1021,8 hPa 0,0 l/m 0 min 0 min 222 W/m 9,7 km/h (2 Bft) 95,74 %
03.04.2022 16:40 7,8 C 8,3 C 3,9 C 63 % 1021,8 hPa 0,0 l/m 0 min 0 min 180 W/m 12,9 km/h (3 Bft) 97,87 %
03.04.2022 16:42 7,8 C 8,3 C 3,9 C 63 % 1021,8 hPa 0,0 l/m 0 min 0 min 160 W/m 16,1 km/h (3 Bft) 97,87 %
03.04.2022 16:44 7,8 C 7,8 C 3,9 C 62 % 1021,8 hPa 0,0 l/m 0 min 0 min 197 W/m 16,1 km/h (3 Bft) 97,14 %
03.04.2022 16:46 7,8 C 8,3 C 3,9 C 62 % 1021,8 hPa 0,0 l/m 0 min 0 min 227 W/m 9,7 km/h (2 Bft) 97,87 %
03.04.2022 16:48 7,8 C 8,3 C 3,9 C 62 % 1021,7 hPa 0,0 l/m 2 min 0 min 244 W/m 12,9 km/h (3 Bft) 97,87 %
03.04.2022 16:50 7,8 C 7,8 C 3,9 C 63 % 1021,7 hPa 0,0 l/m 2 min 0 min 254 W/m 9,7 km/h (2 Bft) 97,83 %
03.04.2022 16:52 7,8 C 8,3 C 3,9 C 63 % 1021,7 hPa 0,0 l/m 0 min 0 min 219 W/m 9,7 km/h (2 Bft) 95,74 %
03.04.2022 16:54 7,8 C 7,8 C 3,9 C 63 % 1021,7 hPa 0,0 l/m 0 min 0 min 205 W/m 6,4 km/h (2 Bft) 97,87 %
03.04.2022 16:56 7,8 C 7,8 C 3,9 C 63 % 1021,7 hPa 0,0 l/m 0 min 0 min 191 W/m 9,7 km/h (2 Bft) 97,87 %
03.04.2022 16:58 7,8 C 7,8 C 3,3 C 63 % 1021,7 hPa 0,0 l/m 0 min 0 min 196 W/m 9,7 km/h (2 Bft) 97,87 %
03.04.2022 17:00 7,7 C 7,8 C 3,3 C 62 % 1021,7 hPa 0,0 l/m 0 min 0 min 208 W/m 12,9 km/h (3 Bft) 97,87 %
03.04.2022 17:02 7,8 C 7,8 C 3,9 C 62 % 1021,7 hPa 0,0 l/m 0 min 0 min 210 W/m 22,5 km/h (4 Bft) 97,83 %
03.04.2022 17:04 7,7 C 7,8 C 3,9 C 62 % 1021,7 hPa 0,0 l/m 0 min 0 min 213 W/m 16,1 km/h (3 Bft) 98,15 %
03.04.2022 17:06 7,7 C 7,8 C 3,9 C 62 % 1021,7 hPa 0,0 l/m 0 min 0 min 201 W/m 12,9 km/h (3 Bft) 100,00 %
03.04.2022 17:08 7,7 C 7,8 C 3,9 C 62 % 1021,6 hPa 0,0 l/m 0 min 0 min 201 W/m 9,7 km/h (2 Bft) 97,87 %
03.04.2022 17:10 7,7 C 7,8 C 3,9 C 62 % 1021,6 hPa 0,0 l/m 0 min 0 min 191 W/m 19,3 km/h (3 Bft) 95,74 %
03.04.2022 17:12 7,7 C 7,8 C 3,3 C 62 % 1021,7 hPa 0,0 l/m 0 min 0 min 184 W/m 12,9 km/h (3 Bft) 93,48 %
03.04.2022 17:14 7,6 C 7,8 C 3,3 C 61 % 1021,6 hPa 0,0 l/m 0 min 0 min 182 W/m 9,7 km/h (2 Bft) 98,00 %
03.04.2022 17:16 7,6 C 7,8 C 3,3 C 62 % 1021,6 hPa 0,0 l/m 0 min 0 min 192 W/m 9,7 km/h (2 Bft) 97,87 %
03.04.2022 17:18 7,7 C 7,8 C 3,9 C 63 % 1021,6 hPa 0,0 l/m 0 min 0 min 186 W/m 12,9 km/h (3 Bft) 95,92 %
03.04.2022 17:20 7,7 C 7,8 C 3,9 C 63 % 1021,6 hPa 0,0 l/m 0 min 0 min 175 W/m 12,9 km/h (3 Bft) 95,74 %
03.04.2022 17:22 7,7 C 7,8 C 3,9 C 63 % 1021,6 hPa 0,0 l/m 0 min 0 min 161 W/m 9,7 km/h (2 Bft) 97,83 %
03.04.2022 17:24 7,7 C 7,8 C 3,9 C 63 % 1021,7 hPa 0,0 l/m 0 min 0 min 148 W/m 16,1 km/h (3 Bft) 97,87 %
03.04.2022 17:26 7,7 C 7,8 C 3,9 C 63 % 1021,7 hPa 0,0 l/m 0 min 0 min 148 W/m 12,9 km/h (3 Bft) 97,14 %
03.04.2022 17:28 7,7 C 7,8 C 3,3 C 63 % 1021,6 hPa 0,0 l/m 0 min 0 min 162 W/m 12,9 km/h (3 Bft) 95,74 %
03.04.2022 17:30 7,7 C 7,2 C 3,3 C 63 % 1021,6 hPa 0,0 l/m 0 min 0 min 169 W/m 6,4 km/h (2 Bft) 98,15 %
03.04.2022 17:32 7,6 C 7,2 C 3,3 C 63 % 1021,6 hPa 0,0 l/m 0 min 0 min 169 W/m 12,9 km/h (3 Bft) 97,87 %
03.04.2022 17:34 7,6 C 7,2 C 3,3 C 63 % 1021,6 hPa 0,0 l/m 0 min 0 min 177 W/m 12,9 km/h (3 Bft) 97,96 %
03.04.2022 17:36 7,6 C 7,8 C 3,3 C 64 % 1021,6 hPa 0,0 l/m 2 min 0 min 212 W/m 12,9 km/h (3 Bft) 95,74 %
03.04.2022 17:38 7,6 C 8,3 C 3,3 C 64 % 1021,6 hPa 0,0 l/m 2 min 0 min 270 W/m 12,9 km/h (3 Bft) 97,96 %
03.04.2022 17:40 7,6 C 8,9 C 3,9 C 63 % 1021,5 hPa 0,0 l/m 2 min 0 min 233 W/m 12,9 km/h (3 Bft) 97,87 %
03.04.2022 17:42 7,7 C 8,3 C 3,9 C 63 % 1021,6 hPa 0,0 l/m 2 min 0 min 196 W/m 9,7 km/h (2 Bft) 97,87 %
03.04.2022 17:44 7,7 C 8,3 C 3,9 C 63 % 1021,5 hPa 0,0 l/m 0 min 0 min 178 W/m 12,9 km/h (3 Bft) 97,14 %
03.04.2022 17:46 7,7 C 8,3 C 3,3 C 63 % 1021,5 hPa 0,0 l/m 0 min 0 min 173 W/m 19,3 km/h (3 Bft) 97,87 %
03.04.2022 17:48 7,7 C 9,4 C 3,3 C 64 % 1021,5 hPa 0,0 l/m 2 min 0 min 195 W/m 12,9 km/h (3 Bft) 97,83 %
03.04.2022 17:50 7,7 C 11,1 C 3,9 C 64 % 1021,5 hPa 0,0 l/m 2 min 0 min 378 W/m 12,9 km/h (3 Bft) 97,87 %
03.04.2022 17:52 7,8 C 12,2 C 4,4 C 64 % 1021,5 hPa 0,0 l/m 2 min 0 min 385 W/m 9,7 km/h (2 Bft) 97,87 %
03.04.2022 17:54 7,9 C 12,8 C 4,4 C 63 % 1021,5 hPa 0,0 l/m 2 min 0 min 458 W/m 19,3 km/h (3 Bft) 93,62 %
03.04.2022 17:56 8,1 C 11,7 C 4,4 C 63 % 1021,5 hPa 0,0 l/m 2 min 0 min 400 W/m 16,1 km/h (3 Bft) 97,87 %
03.04.2022 17:58 8,1 C 10,6 C 4,4 C 62 % 1021,5 hPa 0,0 l/m 2 min 0 min 220 W/m 22,5 km/h (4 Bft) 100,00 %
03.04.2022 18:00 8,1 C 10,6 C 4,4 C 62 % 1021,5 hPa 0,0 l/m 2 min 0 min 316 W/m 16,1 km/h (3 Bft) 100,00 %
03.04.2022 18:02 8,1 C 9,4 C 4,4 C 62 % 1021,4 hPa 0,0 l/m 2 min 0 min 161 W/m 16,1 km/h (3 Bft) 100,00 %
03.04.2022 18:04 8,1 C 8,9 C 3,9 C 62 % 1021,5 hPa 0,0 l/m 0 min 0 min 134 W/m 12,9 km/h (3 Bft) 96,00 %
03.04.2022 18:08 8,0 C 7,8 C 3,3 C 63 % 1021,5 hPa 0,0 l/m 0 min 0 min 109 W/m 9,7 km/h (2 Bft) 100,00 %
03.04.2022 18:10 7,9 C 7,2 C 3,3 C 63 % 1021,5 hPa 0,0 l/m 0 min 0 min 83 W/m 9,7 km/h (2 Bft) 100,00 %
03.04.2022 18:12 7,8 C 7,2 C 3,3 C 64 % 1021,5 hPa 0,0 l/m 0 min 0 min 73 W/m 16,1 km/h (3 Bft) 100,00 %
03.04.2022 18:14 7,7 C 6,7 C 3,3 C 64 % 1021,5 hPa 0,0 l/m 0 min 0 min 64 W/m 12,9 km/h (3 Bft) 100,00 %
03.04.2022 18:16 7,6 C 6,7 C 3,3 C 64 % 1021,6 hPa 0,0 l/m 0 min 0 min 50 W/m 12,9 km/h (3 Bft) 98,00 %
03.04.2022 18:18 7,5 C 6,7 C 3,3 C 67 % 1021,6 hPa 0,0 l/m 0 min 0 min 43 W/m 25,7 km/h (4 Bft) 100,00 %
03.04.2022 18:20 7,4 C 6,7 C 2,8 C 68 % 1021,7 hPa 0,0 l/m 0 min 0 min 46 W/m 16,1 km/h (3 Bft) 100,00 %
03.04.2022 18:22 7,2 C 6,1 C 2,8 C 70 % 1021,7 hPa 0,0 l/m 0 min 0 min 52 W/m 19,3 km/h (3 Bft) 100,00 %
03.04.2022 18:24 6,9 C 6,1 C 2,2 C 71 % 1021,6 hPa 0,0 l/m 0 min 0 min 53 W/m 19,3 km/h (3 Bft) 100,00 %
03.04.2022 18:26 6,8 C 5,6 C 2,2 C 72 % 1021,6 hPa 0,0 l/m 0 min 0 min 55 W/m 16,1 km/h (3 Bft) 100,00 %
03.04.2022 18:28 6,7 C 5,6 C 2,2 C 73 % 1021,6 hPa 0,0 l/m 0 min 0 min 55 W/m 12,9 km/h (3 Bft) 100,00 %
03.04.2022 18:30 6,6 C 5,6 C 2,2 C 74 % 1021,6 hPa 0,0 l/m 0 min 0 min 52 W/m 12,9 km/h (3 Bft) 100,00 %
03.04.2022 18:32 6,5 C 5,6 C 2,2 C 74 % 1021,6 hPa 0,0 l/m 0 min 0 min 51 W/m 19,3 km/h (3 Bft) 95,74 %
03.04.2022 18:34 6,4 C 5,6 C 2,2 C 75 % 1021,6 hPa 0,0 l/m 0 min 0 min 53 W/m 16,1 km/h (3 Bft) 100,00 %
03.04.2022 18:36 6,3 C 5,6 C 2,2 C 76 % 1021,6 hPa 0,0 l/m 0 min 0 min 54 W/m 12,9 km/h (3 Bft) 100,00 %
03.04.2022 18:38 6,2 C 5,6 C 1,7 C 76 % 1021,6 hPa 0,0 l/m 0 min 0 min 54 W/m 12,9 km/h (3 Bft) 100,00 %
03.04.2022 18:40 6,2 C 5,6 C 2,2 C 76 % 1021,7 hPa 0,0 l/m 0 min 0 min 54 W/m 16,1 km/h (3 Bft) 95,74 %
03.04.2022 18:42 6,1 C 5,6 C 1,7 C 76 % 1021,6 hPa 0,0 l/m 0 min 0 min 50 W/m 9,7 km/h (2 Bft) 97,87 %
03.04.2022 18:44 6,1 C 5,6 C 2,2 C 77 % 1021,6 hPa 0,0 l/m 0 min 0 min 49 W/m 9,7 km/h (2 Bft) 97,87 %
03.04.2022 18:46 6,1 C 5,6 C 2,2 C 77 % 1021,6 hPa 0,0 l/m 0 min 0 min 47 W/m 6,4 km/h (2 Bft) 97,83 %
03.04.2022 18:48 6,1 C 5,6 C 2,2 C 76 % 1021,6 hPa 0,0 l/m 0 min 0 min 46 W/m 6,4 km/h (2 Bft) 98,15 %
03.04.2022 18:50 6,1 C 5,6 C 2,2 C 76 % 1021,6 hPa 0,0 l/m 0 min 0 min 46 W/m 12,9 km/h (3 Bft) 96,00 %
03.04.2022 18:52 6,1 C 5,6 C 2,2 C 76 % 1021,5 hPa 0,0 l/m 0 min 0 min 46 W/m 6,4 km/h (2 Bft) 97,87 %
03.04.2022 18:54 6,1 C 5,6 C 2,2 C 76 % 1021,5 hPa 0,0 l/m 0 min 0 min 47 W/m 6,4 km/h (2 Bft) 94,59 %
03.04.2022 18:56 6,1 C 5,6 C 2,2 C 76 % 1021,6 hPa 0,0 l/m 0 min 0 min 47 W/m 3,2 km/h (1 Bft) 95,65 %
03.04.2022 18:58 6,1 C 5,6 C 2,2 C 75 % 1021,5 hPa 0,0 l/m 0 min 0 min 45 W/m 3,2 km/h (1 Bft) 95,74 %
03.04.2022 19:00 6,1 C 5,6 C 2,2 C 75 % 1021,6 hPa 0,0 l/m 0 min 0 min 41 W/m 3,2 km/h (1 Bft) 93,62 %
03.04.2022 19:02 6,1 C 5,6 C 2,2 C 75 % 1021,6 hPa 0,0 l/m 0 min 0 min 37 W/m 6,4 km/h (2 Bft) 95,74 %
03.04.2022 19:04 6,1 C 5,6 C 2,2 C 75 % 1021,6 hPa 0,0 l/m 0 min 0 min 33 W/m 9,7 km/h (2 Bft) 94,00 %
03.04.2022 19:06 6,1 C 5,6 C 2,2 C 75 % 1021,7 hPa 0,0 l/m 0 min 0 min 32 W/m 9,7 km/h (2 Bft) 96,23 %
03.04.2022 19:08 6,1 C 5,6 C 2,2 C 75 % 1021,6 hPa 0,0 l/m 0 min 0 min 30 W/m 6,4 km/h (2 Bft) 95,74 %
03.04.2022 19:10 6,1 C 5,6 C 2,2 C 75 % 1021,6 hPa 0,0 l/m 0 min 0 min 30 W/m 12,9 km/h (3 Bft) 95,74 %
03.04.2022 19:12 6,1 C 5,6 C 2,2 C 75 % 1021,7 hPa 0,0 l/m 0 min 0 min 30 W/m 12,9 km/h (3 Bft) 93,62 %
03.04.2022 19:14 6,1 C 5,6 C 2,2 C 75 % 1021,6 hPa 0,0 l/m 0 min 0 min 30 W/m 9,7 km/h (2 Bft) 97,87 %
03.04.2022 19:16 6,1 C 5,6 C 2,2 C 76 % 1021,6 hPa 0,0 l/m 0 min 0 min 28 W/m 6,4 km/h (2 Bft) 97,87 %
03.04.2022 19:18 6,1 C 5,6 C 1,7 C 76 % 1021,6 hPa 0,0 l/m 0 min 0 min 26 W/m 12,9 km/h (3 Bft) 97,83 %
03.04.2022 19:20 6,0 C 5,6 C 1,7 C 76 % 1021,6 hPa 0,0 l/m 0 min 0 min 24 W/m 6,4 km/h (2 Bft) 97,87 %
03.04.2022 19:22 6,1 C 5,6 C 1,7 C 76 % 1021,6 hPa 0,0 l/m 0 min 0 min 25 W/m 6,4 km/h (2 Bft) 97,87 %
03.04.2022 19:24 6,0 C 5,6 C 1,7 C 76 % 1021,5 hPa 0,0 l/m 0 min 0 min 19 W/m 9,7 km/h (2 Bft) 97,87 %
03.04.2022 19:26 6,0 C 5,6 C 1,7 C 76 % 1021,5 hPa 0,0 l/m 0 min 0 min 17 W/m 12,9 km/h (3 Bft) 97,87 %
03.04.2022 19:28 6,0 C 5,6 C 1,7 C 76 % 1021,5 hPa 0,0 l/m 0 min 0 min 15 W/m 16,1 km/h (3 Bft) 93,48 %
03.04.2022 19:30 5,9 C 5,6 C 1,7 C 76 % 1021,5 hPa 0,0 l/m 0 min 0 min 16 W/m 12,9 km/h (3 Bft) 97,87 %
03.04.2022 19:32 5,9 C 5,6 C 2,2 C 76 % 1021,5 hPa 0,0 l/m 0 min 0 min 17 W/m 6,4 km/h (2 Bft) 95,74 %
03.04.2022 19:34 5,9 C 5,6 C 1,7 C 76 % 1021,5 hPa 0,0 l/m 0 min 0 min 19 W/m 3,2 km/h (1 Bft) 97,37 %
03.04.2022 19:36 5,9 C 5,6 C 1,7 C 77 % 1021,5 hPa 0,0 l/m 0 min 0 min 19 W/m 6,4 km/h (2 Bft) 100,00 %
03.04.2022 19:38 5,9 C 5,0 C 1,7 C 77 % 1021,5 hPa 0,0 l/m 0 min 0 min 19 W/m 6,4 km/h (2 Bft) 97,96 %
03.04.2022 19:40 5,9 C 5,0 C 1,7 C 77 % 1021,5 hPa 0,0 l/m 0 min 0 min 18 W/m 6,4 km/h (2 Bft) 97,87 %
03.04.2022 19:42 5,9 C 5,0 C 1,7 C 77 % 1021,5 hPa 0,0 l/m 0 min 0 min 16 W/m 3,2 km/h (1 Bft) 100,00 %
03.04.2022 19:44 5,8 C 5,0 C 1,7 C 77 % 1021,5 hPa 0,0 l/m 0 min 0 min 14 W/m 3,2 km/h (1 Bft) 100,00 %
03.04.2022 19:46 5,8 C 5,0 C 1,7 C 77 % 1021,5 hPa 0,0 l/m 0 min 0 min 14 W/m 3,2 km/h (1 Bft) 100,00 %
03.04.2022 19:48 5,8 C 5,0 C 1,7 C 78 % 1021,4 hPa 0,0 l/m 0 min 0 min 12 W/m 3,2 km/h (1 Bft) 100,00 %
03.04.2022 19:50 5,8 C 5,0 C 1,7 C 78 % 1021,4 hPa 0,0 l/m 0 min 0 min 12 W/m 3,2 km/h (1 Bft) 100,00 %
03.04.2022 19:52 5,8 C 5,0 C 1,7 C 78 % 1021,4 hPa 0,0 l/m 0 min 0 min 11 W/m 3,2 km/h (1 Bft) 100,00 %
03.04.2022 19:54 5,8 C 5,0 C 1,7 C 78 % 1021,4 hPa 0,0 l/m 0 min 0 min 10 W/m 6,4 km/h (2 Bft) 100,00 %
03.04.2022 19:56 5,8 C 5,0 C 1,7 C 78 % 1021,4 hPa 0,0 l/m 0 min 0 min 9 W/m 3,2 km/h (1 Bft) 97,87 %
03.04.2022 19:58 5,7 C 5,0 C 1,7 C 79 % 1021,4 hPa 0,0 l/m 0 min 0 min 7 W/m 3,2 km/h (1 Bft) 100,00 %
03.04.2022 20:00 5,7 C 5,0 C 1,7 C 79 % 1021,4 hPa 0,0 l/m 0 min 0 min 6 W/m 3,2 km/h (1 Bft) 100,00 %
03.04.2022 20:02 5,7 C 5,0 C 1,7 C 79 % 1021,5 hPa 0,0 l/m 0 min 0 min 5 W/m 3,2 km/h (1 Bft) 97,87 %
03.04.2022 20:04 5,7 C 5,0 C 1,7 C 79 % 1021,4 hPa 0,0 l/m 0 min 0 min 3 W/m 3,2 km/h (1 Bft) 98,11 %
03.04.2022 20:06 5,7 C 5,0 C 1,7 C 79 % 1021,5 hPa 0,0 l/m 0 min 0 min 0 W/m 3,2 km/h (1 Bft) 95,74 %
03.04.2022 20:08 5,7 C 5,0 C 1,7 C 79 % 1021,4 hPa 0,0 l/m 0 min 0 min 0 W/m 3,2 km/h (1 Bft) 97,87 %
03.04.2022 20:10 5,7 C 5,0 C 1,7 C 79 % 1021,4 hPa 0,0 l/m 0 min 0 min 0 W/m 3,2 km/h (1 Bft) 95,74 %
03.04.2022 20:12 5,6 C 5,0 C 1,7 C 79 % 1021,4 hPa 0,0 l/m 0 min 0 min 0 W/m 3,2 km/h (1 Bft) 97,87 %
03.04.2022 20:14 5,6 C 5,0 C 1,7 C 79 % 1021,4 hPa 0,0 l/m 0 min 0 min 0 W/m 6,4 km/h (2 Bft) 97,37 %
03.04.2022 20:16 5,6 C 5,0 C 1,7 C 79 % 1021,4 hPa 0,0 l/m 0 min 0 min 0 W/m 6,4 km/h (2 Bft) 97,87 %
03.04.2022 20:18 5,6 C 5,0 C 1,7 C 79 % 1021,5 hPa 0,0 l/m 0 min 0 min 0 W/m 6,4 km/h (2 Bft) 97,83 %
03.04.2022 20:20 5,6 C 5,0 C 1,7 C 79 % 1021,4 hPa 0,0 l/m 0 min 0 min 0 W/m 3,2 km/h (1 Bft) 97,87 %
03.04.2022 20:22 5,6 C 5,0 C 1,7 C 79 % 1021,3 hPa 0,0 l/m 0 min 0 min 0 W/m 6,4 km/h (2 Bft) 95,74 %
03.04.2022 20:24 5,6 C 5,0 C 1,7 C 79 % 1021,4 hPa 0,0 l/m 0 min 0 min 0 W/m 3,2 km/h (1 Bft) 95,74 %
03.04.2022 20:26 5,6 C 5,0 C 1,7 C 79 % 1021,3 hPa 0,0 l/m 0 min 0 min 0 W/m 3,2 km/h (1 Bft) 95,74 %
03.04.2022 20:28 5,6 C 5,0 C 1,7 C 79 % 1021,3 hPa 0,0 l/m 0 min 0 min 0 W/m 3,2 km/h (1 Bft) 97,87 %
03.04.2022 20:30 5,6 C 5,0 C 1,7 C 79 % 1021,3 hPa 0,0 l/m 0 min 0 min 0 W/m 6,4 km/h (2 Bft) 91,30 %
03.04.2022 20:32 5,6 C 5,0 C 1,7 C 79 % 1021,3 hPa 0,0 l/m 0 min 0 min 0 W/m 6,4 km/h (2 Bft) 93,62 %
03.04.2022 20:34 5,6 C 5,0 C 1,7 C 79 % 1021,3 hPa 0,0 l/m 0 min 0 min 0 W/m 3,2 km/h (1 Bft) 93,62 %
03.04.2022 20:36 5,6 C 5,0 C 1,1 C 79 % 1021,3 hPa 0,0 l/m 0 min 0 min 0 W/m 3,2 km/h (1 Bft) 95,74 %
03.04.2022 20:38 5,5 C 5,0 C 1,1 C 79 % 1021,3 hPa 0,0 l/m 0 min 0 min 0 W/m 3,2 km/h (1 Bft) 95,74 %
03.04.2022 20:40 5,5 C 5,0 C 1,1 C 80 % 1021,3 hPa 0,0 l/m 0 min 0 min 0 W/m 6,4 km/h (2 Bft) 95,74 %
03.04.2022 20:42 5,5 C 5,0 C 1,1 C 80 % 1021,3 hPa 0,0 l/m 0 min 0 min 0 W/m 6,4 km/h (2 Bft) 95,83 %
03.04.2022 20:44 5,5 C 4,4 C 1,1 C 79 % 1021,3 hPa 0,0 l/m 0 min 0 min 0 W/m 6,4 km/h (2 Bft) 97,87 %
03.04.2022 20:46 5,5 C 4,4 C 1,1 C 79 % 1021,3 hPa 0,0 l/m 0 min 0 min 0 W/m 3,2 km/h (1 Bft) 95,74 %
03.04.2022 20:48 5,4 C 4,4 C 1,1 C 79 % 1021,4 hPa 0,0 l/m 0 min 0 min 0 W/m 3,2 km/h (1 Bft) 93,62 %
03.04.2022 20:50 5,4 C 4,4 C 1,1 C 79 % 1021,4 hPa 0,0 l/m 0 min 0 min 0 W/m 3,2 km/h (1 Bft) 93,62 %
03.04.2022 20:52 5,4 C 4,4 C 1,1 C 79 % 1021,3 hPa 0,0 l/m 0 min 0 min 0 W/m 3,2 km/h (1 Bft) 93,48 %
03.04.2022 20:54 5,4 C 4,4 C 1,1 C 79 % 1021,3 hPa 0,0 l/m 0 min 0 min 0 W/m 3,2 km/h (1 Bft) 95,74 %
03.04.2022 20:56 5,4 C 4,4 C 1,1 C 79 % 1021,4 hPa 0,0 l/m 0 min 0 min 0 W/m 3,2 km/h (1 Bft) 95,74 %
03.04.2022 20:58 5,3 C 4,4 C 1,1 C 80 % 1021,4 hPa 0,0 l/m 0 min 0 min 0 W/m 3,2 km/h (1 Bft) 97,87 %
03.04.2022 21:00 5,3 C 4,4 C 1,1 C 80 % 1021,4 hPa 0,0 l/m 0 min 0 min 0 W/m 3,2 km/h (1 Bft) 100,00 %
03.04.2022 21:02 5,3 C 4,4 C 1,1 C 80 % 1021,4 hPa 0,0 l/m 0 min 0 min 0 W/m 6,4 km/h (2 Bft) 100,00 %
03.04.2022 21:04 5,3 C 4,4 C 0,6 C 80 % 1021,5 hPa 0,0 l/m 0 min 0 min 0 W/m 3,2 km/h (1 Bft) 97,83 %
03.04.2022 21:06 5,2 C 3,9 C 0,6 C 80 % 1021,5 hPa 0,0 l/m 0 min 0 min 0 W/m 3,2 km/h (1 Bft) 97,87 %
03.04.2022 21:08 5,2 C 3,9 C 0,6 C 80 % 1021,5 hPa 0,0 l/m 0 min 0 min 0 W/m 3,2 km/h (1 Bft) 97,87 %
03.04.2022 21:10 5,2 C 3,9 C 0,6 C 80 % 1021,5 hPa 0,0 l/m 0 min 0 min 0 W/m 3,2 km/h (1 Bft) 97,87 %
03.04.2022 21:12 5,2 C 3,9 C 0,6 C 80 % 1021,5 hPa 0,0 l/m 0 min 0 min 0 W/m 0,0 km/h (0 Bft) 97,87 %
03.04.2022 21:14 5,1 C 3,9 C 0,6 C 80 % 1021,5 hPa 0,0 l/m 0 min 0 min 0 W/m 3,2 km/h (1 Bft) 100,00 %
03.04.2022 21:16 5,1 C 3,9 C 0,6 C 80 % 1021,5 hPa 0,0 l/m 0 min 0 min 0 W/m 0,0 km/h (0 Bft) 97,83 %
03.04.2022 21:18 5,1 C 3,9 C 0,6 C 80 % 1021,5 hPa 0,0 l/m 0 min 0 min 0 W/m 0,0 km/h (0 Bft) 97,87 %
03.04.2022 21:20 5,0 C 3,9 C 0,6 C 81 % 1021,5 hPa 0,0 l/m 0 min 0 min 0 W/m 0,0 km/h (0 Bft) 97,87 %
03.04.2022 21:22 5,0 C 3,9 C 0,0 C 81 % 1021,5 hPa 0,0 l/m 0 min 0 min 0 W/m 3,2 km/h (1 Bft) 95,74 %
03.04.2022 21:24 4,9 C 3,9 C 0,0 C 81 % 1021,5 hPa 0,0 l/m 0 min 0 min 0 W/m 3,2 km/h (1 Bft) 97,87 %
03.04.2022 21:26 4,9 C 3,9 C 0,0 C 81 % 1021,6 hPa 0,0 l/m 0 min 0 min 0 W/m 0,0 km/h (0 Bft) 97,87 %
03.04.2022 21:28 4,9 C 3,9 C 0,0 C 81 % 1021,6 hPa 0,0 l/m 0 min 0 min 0 W/m 3,2 km/h (1 Bft) 97,83 %
03.04.2022 21:30 4,8 C 3,3 C 0,0 C 81 % 1021,6 hPa 0,0 l/m 0 min 0 min 0 W/m 3,2 km/h (1 Bft) 97,87 %
03.04.2022 21:32 4,8 C 3,9 C 0,0 C 81 % 1021,6 hPa 0,0 l/m 0 min 0 min 0 W/m 3,2 km/h (1 Bft) 97,87 %
03.04.2022 21:34 4,8 C 3,9 C 0,0 C 81 % 1021,7 hPa 0,0 l/m 0 min 0 min 0 W/m 3,2 km/h (1 Bft) 97,87 %
03.04.2022 21:36 4,8 C 3,9 C 0,0 C 81 % 1021,7 hPa 0,0 l/m 0 min 0 min 0 W/m 0,0 km/h (0 Bft) 97,87 %
03.04.2022 21:38 4,7 C 3,9 C 0,0 C 82 % 1021,6 hPa 0,0 l/m 0 min 0 min 0 W/m 3,2 km/h (1 Bft) 95,74 %
03.04.2022 21:40 4,7 C 3,9 C 0,0 C 82 % 1021,6 hPa 0,0 l/m 0 min 0 min 0 W/m 3,2 km/h (1 Bft) 97,83 %
03.04.2022 21:42 4,7 C 3,3 C 0,0 C 82 % 1021,6 hPa 0,0 l/m 0 min 0 min 0 W/m 3,2 km/h (1 Bft) 97,87 %
03.04.2022 21:44 4,7 C 3,3 C 0,0 C 82 % 1021,6 hPa 0,0 l/m 0 min 0 min 0 W/m 0,0 km/h (0 Bft) 97,87 %
03.04.2022 21:46 4,6 C 3,3 C 0,0 C 82 % 1021,6 hPa 0,0 l/m 0 min 0 min 0 W/m 0,0 km/h (0 Bft) 97,87 %
03.04.2022 21:48 4,6 C 3,3 C 0,0 C 81 % 1021,6 hPa 0,0 l/m 0 min 0 min 0 W/m 0,0 km/h (0 Bft) 95,74 %
03.04.2022 21:50 4,6 C 3,3 C 0,0 C 81 % 1021,6 hPa 0,0 l/m 0 min 0 min 0 W/m 0,0 km/h (0 Bft) 97,87 %
03.04.2022 21:52 4,6 C 3,3 C 0,0 C 82 % 1021,6 hPa 0,0 l/m 0 min 0 min 0 W/m 0,0 km/h (0 Bft) 97,83 %
03.04.2022 21:54 4,5 C 3,3 C 0,0 C 82 % 1021,6 hPa 0,0 l/m 0 min 0 min 0 W/m 3,2 km/h (1 Bft) 100,00 %
03.04.2022 21:56 4,4 C 3,3 C 0,0 C 82 % 1021,6 hPa 0,0 l/m 0 min 0 min 0 W/m 6,4 km/h (2 Bft) 100,00 %
03.04.2022 21:58 4,4 C 3,3 C 0,0 C 82 % 1021,6 hPa 0,0 l/m 0 min 0 min 0 W/m 3,2 km/h (1 Bft) 100,00 %
03.04.2022 22:00 4,4 C 3,3 C 0,0 C 82 % 1021,6 hPa 0,0 l/m 0 min 0 min 0 W/m 3,2 km/h (1 Bft) 100,00 %
03.04.2022 22:02 4,3 C 3,3 C 0,0 C 82 % 1021,6 hPa 0,0 l/m 0 min 0 min 0 W/m 6,4 km/h (2 Bft) 100,00 %
03.04.2022 22:04 4,3 C 3,3 C 0,0 C 82 % 1021,6 hPa 0,0 l/m 0 min 0 min 0 W/m 9,7 km/h (2 Bft) 100,00 %
03.04.2022 22:06 4,3 C 3,3 C 0,0 C 82 % 1021,6 hPa 0,0 l/m 0 min 0 min 0 W/m 3,2 km/h (1 Bft) 100,00 %
03.04.2022 22:08 4,3 C 3,3 C 0,0 C 82 % 1021,6 hPa 0,0 l/m 0 min 0 min 0 W/m 3,2 km/h (1 Bft) 95,74 %
03.04.2022 22:10 4,3 C 3,3 C 0,0 C 82 % 1021,6 hPa 0,0 l/m 0 min 0 min 0 W/m 3,2 km/h (1 Bft) 100,00 %
03.04.2022 22:12 4,2 C 3,3 C 0,0 C 82 % 1021,6 hPa 0,0 l/m 0 min 0 min 0 W/m 0,0 km/h (0 Bft) 100,00 %
03.04.2022 22:14 4,2 C 3,3 C 0,0 C 82 % 1021,7 hPa 0,0 l/m 0 min 0 min 0 W/m 3,2 km/h (1 Bft) 97,87 %
03.04.2022 22:16 4,2 C 3,3 C 0,0 C 82 % 1021,6 hPa 0,0 l/m 0 min 0 min 0 W/m 3,2 km/h (1 Bft) 95,65 %
03.04.2022 22:18 4,2 C 3,3 C 0,0 C 82 % 1021,6 hPa 0,0 l/m 0 min 0 min 0 W/m 0,0 km/h (0 Bft) 97,87 %
03.04.2022 22:20 4,2 C 2,8 C -0,6 C 82 % 1021,5 hPa 0,0 l/m 0 min 0 min 0 W/m 3,2 km/h (1 Bft) 97,87 %
03.04.2022 22:22 4,1 C 2,8 C -0,6 C 82 % 1021,5 hPa 0,0 l/m 0 min 0 min 0 W/m 0,0 km/h (0 Bft) 97,87 %
03.04.2022 22:24 4,1 C 2,8 C -0,6 C 82 % 1021,5 hPa 0,0 l/m 0 min 0 min 0 W/m 0,0 km/h (0 Bft) 97,87 %
03.04.2022 22:26 4,1 C 2,8 C -0,6 C 82 % 1021,5 hPa 0,0 l/m 0 min 0 min 0 W/m 6,4 km/h (2 Bft) 97,83 %
03.04.2022 22:28 4,1 C 2,8 C -0,6 C 82 % 1021,5 hPa 0,0 l/m 0 min 0 min 0 W/m 3,2 km/h (1 Bft) 97,87 %
03.04.2022 22:30 4,0 C 2,8 C -0,6 C 82 % 1021,5 hPa 0,0 l/m 0 min 0 min 0 W/m 3,2 km/h (1 Bft) 95,74 %
03.04.2022 22:32 4,0 C 2,8 C -0,6 C 82 % 1021,5 hPa 0,0 l/m 0 min 0 min 0 W/m 3,2 km/h (1 Bft) 97,87 %
03.04.2022 22:34 3,9 C 2,8 C -0,6 C 82 % 1021,5 hPa 0,0 l/m 0 min 0 min 0 W/m 3,2 km/h (1 Bft) 97,87 %
03.04.2022 22:36 3,9 C 2,8 C -0,6 C 82 % 1021,5 hPa 0,0 l/m 0 min 0 min 0 W/m 0,0 km/h (0 Bft) 95,74 %
03.04.2022 22:38 3,9 C 2,8 C -0,6 C 82 % 1021,5 hPa 0,0 l/m 0 min 0 min 0 W/m 3,2 km/h (1 Bft) 97,83 %
03.04.2022 22:40 3,9 C 2,8 C -0,6 C 82 % 1021,5 hPa 0,0 l/m 0 min 0 min 0 W/m 3,2 km/h (1 Bft) 97,87 %
03.04.2022 22:42 3,8 C 2,8 C -0,6 C 82 % 1021,4 hPa 0,0 l/m 0 min 0 min 0 W/m 3,2 km/h (1 Bft) 100,00 %
03.04.2022 22:44 3,8 C 2,8 C -0,6 C 82 % 1021,4 hPa 0,0 l/m 0 min 0 min 0 W/m 3,2 km/h (1 Bft) 100,00 %
03.04.2022 22:46 3,8 C 2,8 C -0,6 C 82 % 1021,4 hPa 0,0 l/m 0 min 0 min 0 W/m 3,2 km/h (1 Bft) 97,87 %
03.04.2022 22:48 3,8 C 2,8 C -0,6 C 82 % 1021,4 hPa 0,0 l/m 0 min 0 min 0 W/m 0,0 km/h (0 Bft) 97,87 %
03.04.2022 22:50 3,7 C 2,8 C -0,6 C 82 % 1021,4 hPa 0,0 l/m 0 min 0 min 0 W/m 3,2 km/h (1 Bft) 100,00 %
03.04.2022 22:52 3,7 C 2,8 C -0,6 C 82 % 1021,4 hPa 0,0 l/m 0 min 0 min 0 W/m 3,2 km/h (1 Bft) 97,87 %
03.04.2022 22:54 3,7 C 2,8 C -0,6 C 82 % 1021,4 hPa 0,0 l/m 0 min 0 min 0 W/m 3,2 km/h (1 Bft) 100,00 %
03.04.2022 22:56 3,7 C 2,2 C -0,6 C 82 % 1021,4 hPa 0,0 l/m 0 min 0 min 0 W/m 3,2 km/h (1 Bft) 100,00 %
03.04.2022 22:58 3,6 C 2,2 C -0,6 C 82 % 1021,4 hPa 0,0 l/m 0 min 0 min 0 W/m 3,2 km/h (1 Bft) 100,00 %
03.04.2022 23:00 3,6 C 2,2 C -0,6 C 83 % 1021,4 hPa 0,0 l/m 0 min 0 min 0 W/m 6,4 km/h (2 Bft) 100,00 %
03.04.2022 23:02 3,6 C 2,2 C -0,6 C 83 % 1021,3 hPa 0,0 l/m 0 min 0 min 0 W/m 6,4 km/h (2 Bft) 100,00 %
03.04.2022 23:04 3,5 C 2,2 C -0,6 C 83 % 1021,3 hPa 0,0 l/m 0 min 0 min 0 W/m 3,2 km/h (1 Bft) 100,00 %
03.04.2022 23:06 3,5 C 2,2 C -0,6 C 83 % 1021,3 hPa 0,0 l/m 0 min 0 min 0 W/m 3,2 km/h (1 Bft) 97,87 %
03.04.2022 23:08 3,4 C 2,2 C -0,6 C 83 % 1021,3 hPa 0,0 l/m 0 min 0 min 0 W/m 3,2 km/h (1 Bft) 100,00 %
03.04.2022 23:10 3,4 C 2,2 C -1,1 C 83 % 1021,3 hPa 0,0 l/m 0 min 0 min 0 W/m 0,0 km/h (0 Bft) 100,00 %
03.04.2022 23:12 3,4 C 2,2 C -1,1 C 83 % 1021,3 hPa 0,0 l/m 0 min 0 min 0 W/m 3,2 km/h (1 Bft) 97,87 %
03.04.2022 23:14 3,3 C 2,2 C -0,6 C 83 % 1021,3 hPa 0,0 l/m 0 min 0 min 0 W/m 3,2 km/h (1 Bft) 100,00 %
03.04.2022 23:16 3,3 C 2,2 C -1,1 C 83 % 1021,3 hPa 0,0 l/m 0 min 0 min 0 W/m 3,2 km/h (1 Bft) 97,87 %
03.04.2022 23:18 3,3 C 2,2 C -1,1 C 83 % 1021,3 hPa 0,0 l/m 0 min 0 min 0 W/m 3,2 km/h (1 Bft) 100,00 %
03.04.2022 23:20 3,3 C 2,2 C -1,1 C 83 % 1021,3 hPa 0,0 l/m 0 min 0 min 0 W/m 3,2 km/h (1 Bft) 97,87 %
03.04.2022 23:22 3,3 C 2,2 C -1,1 C 83 % 1021,3 hPa 0,0 l/m 0 min 0 min 0 W/m 0,0 km/h (0 Bft) 97,87 %
03.04.2022 23:24 3,3 C 2,2 C -1,1 C 83 % 1021,3 hPa 0,0 l/m 0 min 0 min 0 W/m 3,2 km/h (1 Bft) 97,83 %
03.04.2022 23:26 3,2 C 2,2 C -1,1 C 83 % 1021,3 hPa 0,0 l/m 0 min 0 min 0 W/m 6,4 km/h (2 Bft) 97,87 %
03.04.2022 23:28 3,2 C 2,2 C -1,1 C 83 % 1021,2 hPa 0,0 l/m 0 min 0 min 0 W/m 3,2 km/h (1 Bft) 97,87 %
03.04.2022 23:30 3,2 C 2,2 C -1,1 C 83 % 1021,2 hPa 0,0 l/m 0 min 0 min 0 W/m 3,2 km/h (1 Bft) 95,74 %
03.04.2022 23:32 3,2 C 2,2 C -1,1 C 83 % 1021,2 hPa 0,0 l/m 0 min 0 min 0 W/m 3,2 km/h (1 Bft) 95,74 %
03.04.2022 23:34 3,2 C 2,2 C -1,1 C 83 % 1021,2 hPa 0,0 l/m 0 min 0 min 0 W/m 3,2 km/h (1 Bft) 47,50 %
03.04.2022 23:36 3,1 C 2,2 C -1,1 C 83 % 1021,2 hPa 0,0 l/m 0 min 0 min 0 W/m 0,0 km/h (0 Bft) 97,87 %
03.04.2022 23:38 3,1 C 2,2 C -1,1 C 83 % 1021,2 hPa 0,0 l/m 0 min 0 min 0 W/m 3,2 km/h (1 Bft) 95,65 %
03.04.2022 23:40 3,1 C 2,2 C -1,1 C 83 % 1021,2 hPa 0,0 l/m 0 min 0 min 0 W/m 3,2 km/h (1 Bft) 95,74 %
03.04.2022 23:42 3,1 C 2,2 C -1,1 C 83 % 1021,1 hPa 0,0 l/m 0 min 0 min 0 W/m 0,0 km/h (0 Bft) 91,49 %
03.04.2022 23:44 3,1 C 2,2 C -1,1 C 83 % 1021,2 hPa 0,0 l/m 0 min 0 min 0 W/m 3,2 km/h (1 Bft) 93,62 %
03.04.2022 23:46 3,0 C 2,2 C -1,1 C 83 % 1021,1 hPa 0,0 l/m 0 min 0 min 0 W/m 3,2 km/h (1 Bft) 97,87 %
03.04.2022 23:48 3,0 C 1,7 C -1,1 C 83 % 1021,0 hPa 0,0 l/m 0 min 0 min 0 W/m 3,2 km/h (1 Bft) 97,83 %
03.04.2022 23:50 2,9 C 1,7 C -1,1 C 83 % 1021,0 hPa 0,0 l/m 0 min 0 min 0 W/m 3,2 km/h (1 Bft) 93,62 %
03.04.2022 23:52 2,9 C 1,7 C -1,1 C 83 % 1021,0 hPa 0,0 l/m 0 min 0 min 0 W/m 3,2 km/h (1 Bft) 91,49 %
03.04.2022 23:54 2,9 C 1,7 C -1,1 C 83 % 1021,0 hPa 0,0 l/m 0 min 0 min 0 W/m 3,2 km/h (1 Bft) 95,74 %
03.04.2022 23:56 2,9 C 1,7 C -1,1 C 84 % 1021,0 hPa 0,0 l/m 0 min 0 min 0 W/m 3,2 km/h (1 Bft) 95,74 %
03.04.2022 23:58 2,9 C 1,7 C -1,1 C 84 % 1021,0 hPa 0,0 l/m 0 min 0 min 0 W/m 3,2 km/h (1 Bft) 95,74 %
_ Min-Zeit 07:48 06:16 06:08 14:28 23:48 - - - - 03:58 09:14
Minimum _ -1,9 C -2,8 C -5,6 C 55 % 1021,0 hPa - - - - 0,0 km/h (0 Bft) 34,62 %
_ Max-Zeit 14:26 14:04 12:38 08:12 11:14 00:00 09:12 00:00 13:16 18:18 00:00
Maximum _ 9,0 C 15,0 C 11,1 C 85 % 1024,3 hPa 0,0 l/m 2 min 0 min 938 W/m 25,7 km/h
W (4 Bft)
100,00 %
Durchschnitt _ 3,7 C 3,9 C -0,0 C 73 % 1022,6 hPa #0,0 l/m #5:00 h #0 min. 264 W/m 7,0 km/h (2 Bft) 97,22 %
© 2022 W. Hausmann